Portefeuille

choubi

Valeur totale des actifs : 0,000 €

Films achetés

Titre Date Qté Semaine
(unitaire/total)
Cumul
(unitaire/total)
Tiens-toi droite 2014-11-26 1 0,000 € / 0,000 € 13,710 € / 13,710 €
À la vie 2014-11-26 1 0,000 € / 0,000 € 29,048 € / 29,048 €
Eden 2014-11-19 5 0,000 € / 0,000 € 23,959 € / 119,795 €
Bande de filles 2014-10-22 5 0,000 € / 0,000 € 124,946 € / 624,730 €
Le juge 2014-10-22 5 0,000 € / 0,000 € 57,547 € / 287,735 €
La légende de Manolo 2014-10-22 5 0,000 € / 0,000 € 106,815 € / 534,075 €
Balade entre les tombes 2014-10-15 5 0,000 € / 0,000 € 82,317 € / 411,585 €
Pat et Mat 2014-10-15 5 0,000 € / 0,000 € 3,079 € / 15,395 €
Samba 2014-10-15 5 0,000 € / 0,000 € 567,943 € / 2 839,715 €
Hautes terres 2014-10-15 5 0,000 € / 0,000 € 0,510 € / 2,550 €
A la poursuite du roi plumes 2014-10-15 5 0,000 € / 0,000 € 7,474 € / 37,370 €
Annabelle 2014-10-08 5 0,000 € / 0,000 € 348,542 € / 1 742,710 €
Mommy 2014-10-08 5 0,000 € / 0,000 € 378,326 € / 1 891,630 €
Lou ! Journal infime 2014-10-08 5 0,000 € / 0,000 € 71,715 € / 358,575 €
Papa was not a Rolling Stone 2014-10-08 5 0,000 € / 0,000 € 25,017 € / 125,085 €
Tu veux ou tu veux pas 2014-10-01 5 0,000 € / 0,000 € 147,081 € / 735,405 €
Equalizer 2014-10-01 5 0,000 € / 0,000 € 255,159 € / 1 275,795 €
Horns 2014-10-01 5 0,000 € / 0,000 € 60,954 € / 304,770 €
Still the water 2014-10-01 5 0,000 € / 0,000 € 37,100 € / 185,500 €
Bodybuilder 2014-10-01 5 0,000 € / 0,000 € 20,136 € / 100,680 €
The tribe 2014-10-01 5 0,000 € / 0,000 € 6,420 € / 32,100 €
Brèves de comptoir 2014-09-24 5 0,000 € / 0,000 € 37,239 € / 186,195 €
Leviathan 2014-09-24 5 0,000 € / 0,000 € 63,155 € / 315,775 €
Elle l'adore 2014-09-24 5 0,000 € / 0,000 € 154,768 € / 773,840 €
Deepsea challenge 3D, l'aventure d'une vie 2014-09-17 5 0,000 € / 0,000 € 1,958 € / 9,790 €
3 cœurs 2014-09-17 5 0,000 € / 0,000 € 86,697 € / 433,485 €
Pride 2014-09-17 5 0,000 € / 0,000 € 64,753 € / 323,765 €
Bon rétablissement ! 2014-09-17 5 0,000 € / 0,000 € 86,408 € / 432,040 €
Si je reste 2014-09-17 5 0,000 € / 0,000 € 22,139 € / 110,695 €
Les recettes du bonheur 2014-09-10 5 0,000 € / 0,000 € 56,029 € / 280,145 €
Near death experience 2014-09-10 5 0,000 € / 0,000 € 13,838 € / 69,190 €
Délivre-nous du mal 2014-09-03 5 0,000 € / 0,000 € 104,158 € / 520,790 €
Métamorphoses 2014-09-03 5 0,000 € / 0,000 € 19,663 € / 98,315 €
Party girl 2014-08-27 5 0,000 € / 0,000 € 59,106 € / 295,530 €
Sils Maria 2014-08-20 5 0,000 € / 0,000 € 83,198 € / 415,990 €
Des lendemains qui chantent 2014-08-20 5 0,000 € / 0,000 € 33,157 € / 165,785 €
Catacombes 2014-08-20 5 0,000 € / 0,000 € 69,435 € / 347,175 €
Nos étoiles contraires 2014-08-20 5 0,000 € / 0,000 € 187,121 € / 935,605 €
Les combattants 2014-08-20 5 0,000 € / 0,000 € 153,438 € / 767,190 €
Rétrospective intégrale Jacques Tati 2014-08-06 5 0,000 € / 0,000 € 3,050 € / 15,250 €
Agnes Varda in California 2014-07-30 5 0,000 € / 0,000 € 1,105 € / 5,525 €
Echo 2014-07-30 5 0,000 € / 0,000 € 17,349 € / 86,745 €
Au premier regard 2014-07-23 5 0,000 € / 0,000 € 8,782 € / 43,910 €
Belle 2014-07-23 5 0,000 € / 0,000 € 0,757 € / 3,785 €
Maestro 2014-07-23 5 0,000 € / 0,000 € 89,943 € / 449,715 €
Des chevaux et des hommes 2014-07-23 4 0,000 € / 0,000 € 3,699 € / 14,796 €
Transformers : l'âge de l'extinction 2014-07-16 5 0,000 € / 0,000 € 412,830 € / 2 064,150 €
L'homme qu'on aimait trop 2014-07-16 5 0,000 € / 0,000 € 80,841 € / 404,205 €
Fastlife 2014-07-16 5 0,000 € / 0,000 € 153,400 € / 767,000 €
Qu'il est étrange de s'appeler Federico 2014-07-09 3 0,000 € / 0,000 € 7,504 € / 22,512 €
Sunhi 2014-07-09 4 0,000 € / 0,000 € 4,985 € / 19,940 €
Les vacances du petit Nicolas 2014-07-09 5 0,000 € / 0,000 € 259,597 € / 1 297,985 €
Transcendance 2014-06-25 5 0,000 € / 0,000 € 181,712 € / 908,560 €
On a failli être amies 2014-06-25 5 0,000 € / 0,000 € 77,126 € / 385,630 €
Le conte de la princesse Kaguya 2014-06-25 5 0,000 € / 0,000 € 71,735 € / 358,675 €
Le procès de Viviane Amsalem 2014-06-25 5 0,000 € / 0,000 € 50,215 € / 251,075 €
L'ex de ma vie 2014-06-25 5 0,000 € / 0,000 € 64,795 € / 323,975 €
Maps to the stars 2014-05-21 5 0,000 € / 0,000 € 125,109 € / 625,545 €
Deux jours, une nuit 2014-05-21 5 0,000 € / 0,000 € 133,199 € / 665,995 €
Adieu au langage 2014-05-21 3 0,000 € / 0,000 € 19,739 € / 59,217 €
Ligne d'eau 2014-05-14 3 0,000 € / 0,000 € 4,759 € / 14,277 €
The baby 2014-05-07 5 0,000 € / 0,000 € 63,573 € / 317,865 €
Le dernier diamant 2014-04-30 5 0,000 € / 0,000 € 43,955 € / 219,775 €
Conversation animée avec Noam Chomsky 2014-04-30 5 0,000 € / 0,000 € 14,739 € / 73,695 €
Pas son genre 2014-04-30 5 0,000 € / 0,000 € 96,414 € / 482,070 €
Une rencontre 2014-04-23 5 0,000 € / 0,000 € 93,460 € / 467,300 €
Khumba 2014-04-23 5 0,000 € / 0,000 € 88,869 € / 444,345 €
Les amants électriques 2014-04-23 5 0,000 € / 0,000 € 3,898 € / 19,490 €
96 heures 2014-04-23 5 0,000 € / 0,000 € 45,036 € / 225,180 €
Dans la cour 2014-04-23 5 0,000 € / 0,000 € 97,425 € / 487,125 €
Need for speed 2014-04-16 5 0,000 € / 0,000 € 123,111 € / 615,555 €
Babysitting 2014-04-16 5 0,000 € / 0,000 € 533,964 € / 2 669,820 €
African safari 3D 2014-04-16 5 0,000 € / 0,000 € 10,460 € / 52,300 €
Une promesse 2014-04-16 5 0,000 € / 0,000 € 35,655 € / 178,275 €
47 Ronin 2014-04-02 5 0,000 € / 0,000 € 95,540 € / 477,700 €
La crème de la crème 2014-04-02 5 0,000 € / 0,000 € 68,014 € / 340,070 €
Gerontophilia 2014-03-26 5 0,000 € / 0,000 € 13,458 € / 67,290 €
3 days to kill 2014-03-19 5 0,000 € / 0,000 € 116,269 € / 581,345 €
Situation amoureuse : c'est compliqué 2014-03-19 5 0,000 € / 0,000 € 92,330 € / 461,650 €
Wrong cops 2014-03-19 5 0,000 € / 0,000 € 26,853 € / 134,265 €
Arrete ou je continue 2014-03-05 5 0,000 € / 0,000 € 26,800 € / 134,000 €
N'importe qui 2014-03-05 5 0,000 € / 0,000 € 14,071 € / 70,355 €
The grand Budapest hotel 2014-02-26 5 0,000 € / 0,000 € 594,521 € / 2 972,605 €
Non-stop 2014-02-26 5 0,000 € / 0,000 € 375,940 € / 1 879,700 €
Terre des ours 2014-02-26 5 0,000 € / 0,000 € 16,036 € / 80,180 €
La grande aventure de Lego 2014-02-19 5 0,000 € / 0,000 € 303,605 € / 1 518,025 €
Abus de faiblesse 2014-02-12 5 0,000 € / 0,000 € 11,899 € / 59,495 €
Un beau dimanche 2014-02-05 5 0,000 € / 0,000 € 78,141 € / 390,705 €
Jack et la mécanique du coeur 2014-02-05 5 0,000 € / 0,000 € 89,662 € / 448,310 €
Les rayures du zèbre 2014-02-05 5 0,000 € / 0,000 € 23,477 € / 117,385 €
L'ile des miam-nimaux : tempête de boulettes geantes 2 2014-02-05 5 0,000 € / 0,000 € 114,278 € / 571,390 €
Minuscule la vallée des fourmis perdues 2014-01-29 5 0,000 € / 0,000 € 297,127 € / 1 485,635 €
Jacky au royaume des filles 2014-01-29 5 0,000 € / 0,000 € 57,127 € / 285,635 €
Dallas buyers club 2014-01-29 5 0,000 € / 0,000 € 201,509 € / 1 007,545 €
Lulu femme nue 2014-01-22 5 0,000 € / 0,000 € 73,973 € / 369,865 €
Le vent se lève 2014-01-22 5 0,000 € / 0,000 € 225,783 € / 1 128,915 €
Les brasiers de la colère 2014-01-15 5 0,000 € / 0,000 € 73,928 € / 369,640 €
Divin enfant 2014-01-15 5 0,000 € / 0,000 € 13,326 € / 66,630 €
Cadences obstinées 2014-01-08 4 0,000 € / 0,000 € 2,031 € / 8,124 €
Yves Saint Laurent 2014-01-08 5 0,000 € / 0,000 € 441,195 € / 2 205,975 €
Nymphomaniac - volume 1 2014-01-01 5 0,000 € / 0,000 € 71,619 € / 358,095 €
Paranormal activity : The marked ones 2014-01-01 5 0,000 € / 0,000 € 139,473 € / 697,365 €
16 ans ou presque 2013-12-18 5 0,000 € / 0,000 € 113,954 € / 569,770 €
A touch of sin 2013-12-11 5 0,000 € / 0,000 € 86,026 € / 430,130 €
100% cachemire 2013-12-11 5 0,000 € / 0,000 € 72,557 € / 362,785 €
Je fais le mort 2013-12-11 5 0,000 € / 0,000 € 61,969 € / 309,845 €
The lunchbox 2013-12-11 5 0,000 € / 0,000 € 189,281 € / 946,405 €
La jalousie 2013-12-04 5 0,000 € / 0,000 € 18,315 € / 91,575 €
La marche 2013-11-27 5 0,000 € / 0,000 € 46,024 € / 230,120 €
Les garçons et Guillaume, à table ! 2013-11-20 5 0,000 € / 0,000 € 750,087 € / 3 750,435 €
La reine des neiges 2013-11-20 5 0,000 € / 0,000 € 1 024,379 € / 5 121,895 €
L'apprenti Père Noël et le flocon magique 2013-11-20 5 0,000 € / 0,000 € 71,506 € / 357,530 €
La stratégie Ender 2013-11-06 5 0,000 € / 0,000 € 124,081 € / 620,405 €
Quai d'Orsay 2013-11-06 5 0,000 € / 0,000 € 277,177 € / 1 385,885 €
Jasmine 2013-10-30 3 0,000 € / 0,000 € 1,370 € / 4,110 €
Snowpiercer le transperceneige 2013-10-30 5 0,000 € / 0,000 € 238,288 € / 1 191,440 €
Prince of Texas 2013-10-30 5 0,000 € / 0,000 € 9,244 € / 46,220 €
Un château en Italie 2013-10-30 5 0,000 € / 0,000 € 80,637 € / 403,185 €
Interior. leather bar. 2013-10-30 3 0,000 € / 0,000 € 2,113 € / 6,339 €
Ma maman est en Amérique, elle a rencontré Buffalo Bill 2013-10-23 5 0,000 € / 0,000 € 9,420 € / 47,100 €
Heimat - chronique d'un rêve - l'exode 2013-10-23 5 0,000 € / 0,000 € 57,451 € / 287,255 €
Au bonheur des ogres 2013-10-16 5 0,000 € / 0,000 € 43,905 € / 219,525 €
Gabrielle 2013-10-16 5 0,000 € / 0,000 € 15,499 € / 77,495 €
L'extravagant voyage du jeune et prodigieux T.S. Spivet 2013-10-16 5 0,000 € / 0,000 € 120,954 € / 604,770 €
Omar 2013-10-16 5 0,000 € / 0,000 € 31,206 € / 156,030 €
Prisoners 2013-10-09 5 0,000 € / 0,000 € 359,901 € / 1 799,505 €
La vie d'Adèle chapitres 1 & 2 2013-10-09 5 0,000 € / 0,000 € 263,537 € / 1 317,685 €
Machete kills 2013-10-02 5 0,000 € / 0,000 € 52,180 € / 260,900 €
Eyjafjallajökull 2013-10-02 5 0,000 € / 0,000 € 219,486 € / 1 097,430 €
Mon âme par toi guérie 2013-09-25 5 0,000 € / 0,000 € 24,137 € / 120,685 €
Players 2013-09-25 5 0,000 € / 0,000 € 146,502 € / 732,510 €
Elle s'en va 2013-09-18 5 0,000 € / 0,000 € 94,541 € / 472,705 €
Ma vie avec Liberace 2013-09-18 5 0,000 € / 0,000 € 109,733 € / 548,665 €
La bataille de Solferino 2013-09-18 5 0,000 € / 0,000 € 17,815 € / 89,075 €
Ilo ilo 2013-09-04 5 0,000 € / 0,000 € 28,586 € / 142,930 €
You're next 2013-09-04 5 0,000 € / 0,000 € 34,380 € / 171,900 €
Magic magic 2013-08-28 5 0,000 € / 0,000 € 7,504 € / 37,520 €
Conjuring les dossiers Warren 2013-08-21 5 0,000 € / 0,000 € 316,462 € / 1 582,310 €
Michael kohlhaas 2013-08-14 5 0,000 € / 0,000 € 45,659 € / 228,295 €
Les Apaches 2013-08-14 4 0,000 € / 0,000 € 18,145 € / 72,580 €
R.I.P.D. brigade fantomes 2013-07-31 5 0,000 € / 0,000 € 71,511 € / 357,555 €
Texas chainsaw 3D 2013-07-31 5 0,000 € / 0,000 € 13,249 € / 66,245 €
Les reines du ring 2013-07-03 5 0,000 € / 0,000 € 41,823 € / 209,115 €
Broken city 2013-06-26 5 0,000 € / 0,000 € 32,561 € / 162,805 €
Moi, moche et méchant 2 2013-06-26 5 0,000 € / 0,000 € 889,776 € / 4 448,880 €
Man of steel 2013-06-19 5 0,000 € / 0,000 € 663,149 € / 3 315,745 €
Arnaque à la carte 2013-06-12 5 0,000 € / 0,000 € 14,555 € / 72,775 €
L'inconnu du lac 2013-06-12 5 0,000 € / 0,000 € 55,410 € / 277,050 €
The bling ring 2013-06-12 5 0,000 € / 0,000 € 188,566 € / 942,830 €
L'autre vie de Richard Kemp 2013-06-05 3 0,000 € / 0,000 € 6,440 € / 19,320 €
Demi-sœur 2013-06-05 5 0,000 € / 0,000 € 23,426 € / 117,130 €
Pop redemption 2013-06-05 5 0,000 € / 0,000 € 24,428 € / 122,140 €
The iceman 2013-06-05 5 0,000 € / 0,000 € 50,172 € / 250,860 €
La fille du 14 juillet 2013-06-05 5 0,000 € / 0,000 € 22,408 € / 112,040 €
Very bad trip 3 2013-05-29 5 0,000 € / 0,000 € 541,656 € / 2 708,280 €
Je suis supporter du Standard 2013-05-29 5 0,000 € / 0,000 € 1,640 € / 8,200 €
La grande bellezza 2013-05-22 5 0,000 € / 0,000 € 117,494 € / 587,470 €
Mama 2013-05-15 5 0,000 € / 0,000 € 101,682 € / 508,410 €
Song for Marion 2013-05-15 5 0,000 € / 0,000 € 23,484 € / 117,420 €
Upside down 2013-05-01 5 0,000 € / 0,000 € 77,416 € / 387,080 €
Evil dead 2013-05-01 5 0,000 € / 0,000 € 96,807 € / 484,035 €
La cage dorée 2013-04-24 5 0,000 € / 0,000 € 424,270 € / 2 121,350 €
L'écume des jours 2013-04-24 5 0,000 € / 0,000 € 206,819 € / 1 034,095 €
La belle endormie 2013-04-10 5 0,000 € / 0,000 € 10,927 € / 54,635 €
Les Croods 2013-04-10 5 0,000 € / 0,000 € 454,114 € / 2 270,570 €
Des gens qui s'embrassent 2013-04-10 5 0,000 € / 0,000 € 31,441 € / 157,205 €
Le temps de l'aventure 2013-04-10 5 0,000 € / 0,000 € 73,067 € / 365,335 €
La maison de la radio 2013-04-03 5 0,000 € / 0,000 € 36,364 € / 181,820 €
Free Angela and all political prisoners 2013-04-03 4 0,000 € / 0,000 € 19,170 € / 76,680 €
Effets secondaires 2013-04-03 5 0,000 € / 0,000 € 191,068 € / 955,340 €
Dead man down 2013-04-03 5 0,000 € / 0,000 € 37,461 € / 187,305 €
Amour & turbulences 2013-04-03 5 0,000 € / 0,000 € 106,629 € / 533,145 €
Quartet 2013-04-03 5 0,000 € / 0,000 € 112,273 € / 561,365 €
G.I. Joe : conspiration 2013-03-27 5 0,000 € / 0,000 € 221,258 € / 1 106,290 €
Cloud atlas 2013-03-13 5 0,000 € / 0,000 € 173,652 € / 868,260 €
L'artiste et son modèle 2013-03-13 5 0,000 € / 0,000 € 19,095 € / 95,475 €
Le monde fantastique d'Oz 2013-03-13 5 0,000 € / 0,000 € 353,460 € / 1 767,300 €
Spring breakers 2013-03-06 5 0,000 € / 0,000 € 204,185 € / 1 020,925 €
Au bout du conte 2013-03-06 5 0,000 € / 0,000 € 266,407 € / 1 332,035 €
Du plomb dans la tête 2013-02-27 5 0,000 € / 0,000 € 41,300 € / 206,500 €
Des abeilles et des hommes 2013-02-20 3 0,000 € / 0,000 € 17,539 € / 52,617 €
La vraie vie des profs 2013-02-20 5 0,000 € / 0,000 € 79,318 € / 396,590 €
Pinocchio 2013-02-20 5 0,000 € / 0,000 € 18,521 € / 92,605 €
Chimpanzés 2013-02-20 5 0,000 € / 0,000 € 87,590 € / 437,950 €
Passion 2013-02-13 5 0,000 € / 0,000 € 66,640 € / 333,200 €
Turf 2013-02-13 5 0,000 € / 0,000 € 49,677 € / 248,385 €
Les misérables 2013-02-13 5 0,000 € / 0,000 € 83,094 € / 415,470 €
La bande des Jotas 2013-02-06 3 0,000 € / 0,000 € 1,341 € / 4,023 €
Gangster squad 2013-02-06 5 0,000 € / 0,000 € 249,652 € / 1 248,260 €
Hitchcock 2013-02-06 5 0,000 € / 0,000 € 108,986 € / 544,930 €
La fille de nulle part 2013-02-06 4 0,000 € / 0,000 € 5,914 € / 23,656 €
Arretez-moi 2013-02-06 5 0,000 € / 0,000 € 20,642 € / 103,210 €
Tu honoreras ta mère et ta mère 2013-02-06 5 0,000 € / 0,000 € 13,998 € / 69,990 €
Gambit arnaque à l'anglaise 2013-02-06 5 0,000 € / 0,000 € 43,330 € / 216,650 €
Amitiés sincères 2013-01-30 5 0,000 € / 0,000 € 138,219 € / 691,095 €
7 psychopathes 2013-01-30 5 0,000 € / 0,000 € 58,222 € / 291,110 €
Max 2013-01-23 5 0,000 € / 0,000 € 85,514 € / 427,570 €
La parade 2013-01-16 4 0,000 € / 0,000 € 39,430 € / 157,720 €
Alceste à bicyclette 2013-01-16 5 0,000 € / 0,000 € 276,321 € / 1 381,605 €
Les jeux des nuages & de la pluie 2013-01-09 3 0,000 € / 0,000 € 0,629 € / 1,887 €
Un prince (presque) charmant 2013-01-09 5 0,000 € / 0,000 € 41,442 € / 207,210 €
Maniac 2013-01-02 5 0,000 € / 0,000 € 45,379 € / 226,895 €
Foxfire 2013-01-02 5 0,000 € / 0,000 € 47,350 € / 236,750 €
Possedée 2012-12-26 5 0,000 € / 0,000 € 118,408 € / 592,040 €
L'homme qui rit 2012-12-26 5 0,000 € / 0,000 € 58,083 € / 290,415 €
Alex Cross 2012-12-19 5 0,000 € / 0,000 € 42,475 € / 212,375 €
Tele gaucho 2012-12-12 5 0,000 € / 0,000 € 33,844 € / 169,220 €
Le noir (te) vous va si bien 2012-12-05 4 0,000 € / 0,000 € 4,031 € / 16,124 €
Trois mondes 2012-12-05 5 0,000 € / 0,000 € 16,933 € / 84,665 €
Mais qui a re-tué Pamela Rose ? 2012-12-05 5 0,000 € / 0,000 € 60,352 € / 301,760 €
Ai Weiwei never sorry 2012-12-05 4 0,000 € / 0,000 € 1,724 € / 6,896 €
Les invisibles 2012-11-28 5 0,000 € / 0,000 € 33,587 € / 167,935 €
Chasing Mavericks 2012-11-28 4 0,000 € / 0,000 € 8,707 € / 34,828 €
Les mondes de Ralph 2012-11-21 5 0,000 € / 0,000 € 450,782 € / 2 253,910 €
Royal affair 2012-11-21 5 0,000 € / 0,000 € 102,272 € / 511,360 €
Au-delà des collines 2012-11-21 4 0,000 € / 0,000 € 22,817 € / 91,268 €
Après mai 2012-11-14 5 0,000 € / 0,000 € 39,916 € / 199,580 €
Fear and desire 2012-11-14 3 0,000 € / 0,000 € 3,113 € / 9,339 €
Skyfall 2012-10-31 5 0,000 € / 0,000 € 1 722,690 € / 8 613,450 €
Paranormal activity 4 2012-10-31 5 0,000 € / 0,000 € 218,209 € / 1 091,045 €
La traversée 2012-10-31 5 0,000 € / 0,000 € 21,096 € / 105,480 €
Le jour des corneilles 2012-10-24 5 0,000 € / 0,000 € 57,928 € / 289,640 €
Asterix & Obelix au service de sa majesté 2012-10-17 5 0,000 € / 0,000 € 616,016 € / 3 080,080 €
In another country 2012-10-17 5 0,000 € / 0,000 € 31,583 € / 157,915 €
Au galop 2012-10-17 5 0,000 € / 0,000 € 12,821 € / 64,105 €
Le petit Gruffalo 2012-10-17 5 0,000 € / 0,000 € 10,652 € / 53,260 €
Arctique 2012-10-17 5 0,000 € / 0,000 € 227,063 € / 1 135,315 €
Tous les espoirs sont permis 2012-10-10 5 0,000 € / 0,000 € 78,452 € / 392,260 €
Dans la maison 2012-10-10 5 0,000 € / 0,000 € 339,086 € / 1 695,430 €
Clochette et le secret des fées 2012-10-10 5 0,000 € / 0,000 € 251,996 € / 1 259,980 €
Reality 2012-10-03 5 0,000 € / 0,000 € 38,119 € / 190,595 €
Kirikou et les hommes et les femmes 2012-10-03 5 0,000 € / 0,000 € 213,733 € / 1 068,665 €
Pauline détective 2012-10-03 5 0,000 € / 0,000 € 40,321 € / 201,605 €
Después de Lucía 2012-10-03 5 0,000 € / 0,000 € 22,125 € / 110,625 €
Gebo et l'ombre 2012-09-26 3 0,000 € / 0,000 € 8,034 € / 24,102 €
Resident evil : retribution 2012-09-26 5 0,000 € / 0,000 € 112,472 € / 562,360 €
Vous n'avez encore rien vu 2012-09-26 5 0,000 € / 0,000 € 57,316 € / 286,580 €
Savages 2012-09-26 5 0,000 € / 0,000 € 208,218 € / 1 041,090 €
Would you have sex with an arab ? 2012-09-12 3 0,000 € / 0,000 € 6,000 € / 18,000 €
David et madame Hansen 2012-08-29 5 0,000 € / 0,000 € 34,166 € / 170,830 €
Superstar 2012-08-29 5 0,000 € / 0,000 € 52,913 € / 264,565 €
My soul to take 2012-08-01 5 0,000 € / 0,000 € 0,984 € / 4,920 €
Laurence anyways 2012-07-18 5 0,000 € / 0,000 € 52,542 € / 262,710 €
Bowling 2012-07-18 5 0,000 € / 0,000 € 82,473 € / 412,365 €
Le Lorax 2012-07-18 5 0,000 € / 0,000 € 108,740 € / 543,700 €
Les enfants de Belle Ville 2012-07-11 5 0,000 € / 0,000 € 38,432 € / 192,160 €
Holy motors 2012-07-04 5 0,000 € / 0,000 € 80,624 € / 403,120 €
La part des anges 2012-06-27 5 0,000 € / 0,000 € 239,048 € / 1 195,240 €
L'âge de glace 4 la dérive des continents 2012-06-27 5 0,000 € / 0,000 € 1 073,071 € / 5 365,355 €
La petite Venise 2012-06-13 4 0,000 € / 0,000 € 35,201 € / 140,804 €
Bienvenue parmi nous 2012-06-13 5 0,000 € / 0,000 € 36,274 € / 181,370 €
21 jump street 2012-06-06 5 0,000 € / 0,000 € 102,517 € / 512,585 €
Le grand soir 2012-06-06 5 0,000 € / 0,000 € 111,650 € / 558,250 €
Arrete de pleurer Pénélope 2012-06-06 5 0,000 € / 0,000 € 34,706 € / 173,530 €
Madagascar 3 bons baisers d'Europe 2012-06-06 5 0,000 € / 0,000 € 734,842 € / 3 674,210 €
Des saumons dans le désert 2012-06-06 4 0,000 € / 0,000 € 29,222 € / 116,888 €
Contrebande 2012-05-16 5 0,000 € / 0,000 € 54,985 € / 274,925 €
W.E. Wallis & Edouard 2012-05-09 5 0,000 € / 0,000 € 14,326 € / 71,630 €
Street dance 2 3D 2012-05-09 5 0,000 € / 0,000 € 100,487 € / 502,435 €
Maman 2012-05-09 5 0,000 € / 0,000 € 55,473 € / 277,365 €
La cabane dans les bois 2012-05-02 5 0,000 € / 0,000 € 127,974 € / 639,870 €
Walk away Renee 2012-05-02 3 0,000 € / 0,000 € 3,220 € / 9,660 €
La cerise sur le gâteau 2012-05-02 5 0,000 € / 0,000 € 13,680 € / 68,400 €
Dépression & des potes 2012-05-02 5 0,000 € / 0,000 € 80,376 € / 401,880 €
Avengers 2012-04-25 5 0,000 € / 0,000 € 1 179,033 € / 5 895,165 €
Les vacances de Ducobu 2012-04-25 5 0,000 € / 0,000 € 177,679 € / 888,395 €
L'enfant d'en haut 2012-04-18 5 0,000 € / 0,000 € 40,280 € / 201,400 €
Nouveau départ 2012-04-18 5 0,000 € / 0,000 € 136,644 € / 683,220 €
Radiostars 2012-04-11 5 0,000 € / 0,000 € 204,899 € / 1 024,495 €
Le roi lion 3D 2012-04-11 5 0,000 € / 0,000 € 154,047 € / 770,235 €
Blanche neige 2012-04-11 5 0,000 € / 0,000 € 225,850 € / 1 129,250 €
Plan de table 2012-04-11 5 0,000 € / 0,000 € 63,011 € / 315,055 €
Twixt 2012-04-11 5 0,000 € / 0,000 € 55,038 € / 275,190 €
Les pirates ! bons à rien mauvais en tout 2012-03-28 5 0,000 € / 0,000 € 194,833 € / 974,165 €
Mince alors ! 2012-03-28 5 0,000 € / 0,000 € 233,288 € / 1 166,440 €
2 days in New York 2012-03-28 5 0,000 € / 0,000 € 218,281 € / 1 091,405 €
Hénaut président 2012-03-21 4 0,000 € / 0,000 € 1,996 € / 7,984 €
Bye bye blondie 2012-03-21 5 0,000 € / 0,000 € 15,086 € / 75,430 €
Eva 2012-03-21 4 0,000 € / 0,000 € 4,322 € / 17,288 €
Torpedo 2012-03-21 4 0,000 € / 0,000 € 4,860 € / 19,440 €
La dame en noir 2012-03-14 5 0,000 € / 0,000 € 126,610 € / 633,050 €
Projet X 2012-03-14 5 0,000 € / 0,000 € 466,335 € / 2 331,675 €
Le paradis des bêtes 2012-03-14 4 0,000 € / 0,000 € 5,391 € / 21,564 €
Comme un chef 2012-03-07 5 0,000 € / 0,000 € 73,402 € / 367,010 €
Indignados 2012-03-07 5 0,000 € / 0,000 € 4,631 € / 23,155 €
Oslo, 31 août 2012-02-29 5 0,000 € / 0,000 € 65,581 € / 327,905 €
Le territoire des loups 2012-02-29 5 0,000 € / 0,000 € 96,228 € / 481,140 €
La mer a boire 2012-02-22 5 0,000 € / 0,000 € 33,509 € / 167,545 €
Devil inside 2012-02-22 5 0,000 € / 0,000 € 129,019 € / 645,095 €
Chronicle 2012-02-22 5 0,000 € / 0,000 € 360,546 € / 1 802,730 €
La vie d'une autre 2012-02-15 5 0,000 € / 0,000 € 91,439 € / 457,195 €
Il était une fois, une fois 2012-02-15 5 0,000 € / 0,000 € 32,366 € / 161,830 €
Voyage au centre de la terre 2 : l'île mystérieuse 2012-02-15 5 0,000 € / 0,000 € 270,667 € / 1 353,335 €
La taupe 2012-02-08 5 0,000 € / 0,000 € 286,294 € / 1 431,470 €
Zarafa 2012-02-08 5 0,000 € / 0,000 € 263,766 € / 1 318,830 €
Recherche bad boys désespérément 2012-02-08 5 0,000 € / 0,000 € 63,324 € / 316,620 €
JC comme Jésus Christ 2012-02-08 5 0,000 € / 0,000 € 7,997 € / 39,985 €
La vérite si je mens ! 3 2012-02-01 5 0,000 € / 0,000 € 839,133 € / 4 195,665 €
Félins 2012-02-01 5 0,000 € / 0,000 € 183,796 € / 918,980 €
Elles 2012-02-01 5 0,000 € / 0,000 € 45,298 € / 226,490 €
Sport de filles 2012-01-25 5 0,000 € / 0,000 € 19,028 € / 95,140 €
Sherlock Holmes jeu d'ombres 2012-01-25 5 0,000 € / 0,000 € 577,601 € / 2 888,005 €
Cafe de flore 2012-01-25 5 0,000 € / 0,000 € 23,808 € / 119,040 €
Dans la tourmente 2012-01-11 5 0,000 € / 0,000 € 17,777 € / 88,885 €
The darkest hour en 3D 2012-01-11 5 0,000 € / 0,000 € 56,803 € / 284,015 €
La colline aux coquelicots 2012-01-11 5 0,000 € / 0,000 € 111,071 € / 555,355 €
Le pacte 2012-01-04 5 0,000 € / 0,000 € 141,119 € / 705,595 €
Anonymous 2012-01-04 5 0,000 € / 0,000 € 12,802 € / 64,010 €
Louise Wimmer 2012-01-04 5 0,000 € / 0,000 € 44,472 € / 222,360 €
Une vie meilleure 2012-01-04 5 0,000 € / 0,000 € 132,176 € / 660,880 €
Les acacias 2012-01-04 5 0,000 € / 0,000 € 28,859 € / 144,295 €
Une nuit 2012-01-04 5 0,000 € / 0,000 € 103,856 € / 519,280 €
Take shelter 2012-01-04 5 0,000 € / 0,000 € 90,187 € / 450,935 €
30 minutes maximum 2011-12-28 5 0,000 € / 0,000 € 2,330 € / 11,650 €
Let my people go ! 2011-12-28 3 0,000 € / 0,000 € 12,694 € / 38,082 €
Malveillance 2011-12-28 5 0,000 € / 0,000 € 42,809 € / 214,045 €
La clé des champs 2011-12-21 5 0,000 € / 0,000 € 10,746 € / 53,730 €
Alvin et les Chipmunks 3 2011-12-21 5 0,000 € / 0,000 € 401,845 € / 2 009,225 €
Happy new year 2011-12-21 5 0,000 € / 0,000 € 182,011 € / 910,055 €
Le Havre 2011-12-21 5 0,000 € / 0,000 € 142,226 € / 711,130 €
La délicatesse 2011-12-21 5 0,000 € / 0,000 € 169,373 € / 846,865 €
Les boloss 2011-12-21 5 0,000 € / 0,000 € 23,011 € / 115,055 €
Le miroir 2011-12-21 5 0,000 € / 0,000 € 3,386 € / 16,930 €
Oh my god ! 2011-12-14 5 0,000 € / 0,000 € 32,092 € / 160,460 €
Les tribulations d'une caissière 2011-12-14 5 0,000 € / 0,000 € 17,767 € / 88,835 €
Happy feet 2 2011-12-07 5 0,000 € / 0,000 € 113,850 € / 569,250 €
Hollywoo 2011-12-07 5 0,000 € / 0,000 € 464,988 € / 2 324,940 €
Carnage 2011-12-07 5 0,000 € / 0,000 € 176,371 € / 881,855 €
Shame 2011-12-07 5 0,000 € / 0,000 € 213,380 € / 1 066,900 €
Footnote 2011-11-30 5 0,000 € / 0,000 € 7,335 € / 36,675 €
Hara-kiri : mort d'un samouraï 2011-11-30 4 0,000 € / 0,000 € 7,076 € / 28,304 €
Americano 2011-11-30 5 0,000 € / 0,000 € 11,501 € / 57,505 €
Or noir 2011-11-23 5 0,000 € / 0,000 € 67,176 € / 335,880 €
Donoma 2011-11-23 5 0,000 € / 0,000 € 9,225 € / 46,125 €
Mission : Noël les aventures de la famille Noël 2011-11-23 5 0,000 € / 0,000 € 101,692 € / 508,460 €
Nuit blanche 2011-11-16 5 0,000 € / 0,000 € 20,053 € / 100,265 €
Twilight - chapitre 4 : révélation premiere partie 2011-11-16 5 0,000 € / 0,000 € 573,870 € / 2 869,350 €
La femme du veme 2011-11-16 5 0,000 € / 0,000 € 21,169 € / 105,845 €
Bonsai 2011-11-09 5 0,000 € / 0,000 € 2,452 € / 12,260 €
On ne choisit pas sa famille 2011-11-09 5 0,000 € / 0,000 € 69,760 € / 348,800 €
Toutes nos envies 2011-11-09 5 0,000 € / 0,000 € 73,967 € / 369,835 €
Les géants 2011-11-02 5 0,000 € / 0,000 € 10,626 € / 53,130 €
La source des femmes 2011-11-02 5 0,000 € / 0,000 € 120,949 € / 604,745 €
La couleur des sentiments (the help) 2011-10-26 5 0,000 € / 0,000 € 173,982 € / 869,910 €
L'exercice de l'Etat 2011-10-26 4 0,000 € / 0,000 € 176,757 € / 707,028 €
Poulet aux prunes 2011-10-26 5 0,000 € / 0,000 € 63,603 € / 318,015 €
Les aventures de Tintin : le secret de la Licorne 2011-10-26 5 0,000 € / 0,000 € 924,362 € / 4 621,810 €
Hors satan 2011-10-19 5 0,000 € / 0,000 € 10,529 € / 52,645 €
Polisse 2011-10-19 5 0,000 € / 0,000 € 701,247 € / 3 506,235 €
Emilie Jolie 2011-10-19 5 0,000 € / 0,000 € 23,225 € / 116,125 €
The artist 2011-10-12 5 0,000 € / 0,000 € 807,178 € / 4 035,890 €
Beur sur la ville 2011-10-12 5 0,000 € / 0,000 € 132,701 € / 663,505 €
Le skylab 2011-10-05 5 0,000 € / 0,000 € 96,214 € / 481,070 €
Dream house 2011-10-05 5 0,000 € / 0,000 € 87,739 € / 438,695 €
(s)ex list 2011-10-05 5 0,000 € / 0,000 € 69,430 € / 347,150 €
Les hommes libres 2011-09-28 5 0,000 € / 0,000 € 56,811 € / 284,055 €
Identité secrète 2011-09-28 5 0,000 € / 0,000 € 179,739 € / 898,695 €
Glee on tour le film 3D 2011-09-28 5 0,000 € / 0,000 € 5,124 € / 25,620 €
Et maintenant on va où ? 2011-09-14 5 0,000 € / 0,000 € 145,924 € / 729,620 €
Presumé coupable 2011-09-07 5 0,000 € / 0,000 € 87,045 € / 435,225 €
Cadavres à la pelle 2011-08-31 5 0,000 € / 0,000 € 5,225 € / 26,125 €
R.I.F. 2011-08-31 5 0,000 € / 0,000 € 48,032 € / 240,160 €
La guerre est declarée 2011-08-31 5 0,000 € / 0,000 € 283,399 € / 1 416,995 €
Blackthorn 2011-08-31 5 0,000 € / 0,000 € 23,342 € / 116,710 €
Cowboys & envahisseurs 2011-08-24 5 0,000 € / 0,000 € 224,279 € / 1 121,395 €
Un jour 2011-08-24 5 0,000 € / 0,000 € 109,985 € / 549,925 €
Les bien-aimes 2011-08-24 5 0,000 € / 0,000 € 86,206 € / 431,030 €
This must be the place 2011-08-24 5 0,000 € / 0,000 € 60,010 € / 300,050 €
Captain America - First avenger 2011-08-17 5 0,000 € / 0,000 € 278,952 € / 1 394,760 €
La piel que habito 2011-08-17 5 0,000 € / 0,000 € 241,966 € / 1 209,830 €
Impardonnables 2011-08-17 5 0,000 € / 0,000 € 56,392 € / 281,960 €
Comment tuer son boss ? 2011-08-17 5 0,000 € / 0,000 € 331,814 € / 1 659,070 €
Mes meilleures amies 2011-08-10 5 0,000 € / 0,000 € 201,900 € / 1 009,500 €
L'artiste 2011-08-10 3 0,000 € / 0,000 € 3,086 € / 9,258 €
Killing Bono 2011-08-03 3 0,000 € / 0,000 € 23,362 € / 70,086 €
Itineraire bis 2011-08-03 5 0,000 € / 0,000 € 51,821 € / 259,105 €
Bad teacher 2011-07-27 5 0,000 € / 0,000 € 232,405 € / 1 162,025 €
Colombiana 2011-07-27 5 0,000 € / 0,000 € 182,362 € / 911,810 €
J'aime regarder les filles 2011-07-20 5 0,000 € / 0,000 € 25,598 € / 127,990 €
Le sang des templiers 2011-07-20 5 0,000 € / 0,000 € 50,825 € / 254,125 €
Les contes de la nuit 2011-07-20 5 0,000 € / 0,000 € 52,442 € / 262,210 €
The trip 2011-07-20 5 0,000 € / 0,000 € 26,804 € / 134,020 €
Submarine 2011-07-20 5 0,000 € / 0,000 € 27,855 € / 139,275 €
Attack the block 2011-07-20 3 0,000 € / 0,000 € 8,731 € / 26,193 €
Le moine 2011-07-13 5 0,000 € / 0,000 € 50,010 € / 250,050 €
Il n'est jamais trop tard 2011-07-06 5 0,000 € / 0,000 € 165,622 € / 828,110 €
Hop 2011-07-06 5 0,000 € / 0,000 € 92,120 € / 460,600 €
Switch 2011-07-06 5 0,000 € / 0,000 € 78,326 € / 391,630 €
Les Tuche 2011-07-06 5 0,000 € / 0,000 € 205,710 € / 1 028,550 €
My little princess 2011-06-29 5 0,000 € / 0,000 € 38,269 € / 191,345 €
L'élève Ducobu 2011-06-22 5 0,000 € / 0,000 € 249,581 € / 1 247,905 €
Omar m'a tuer 2011-06-22 5 0,000 € / 0,000 € 194,022 € / 970,110 €
Noir océan 2011-06-22 5 0,000 € / 0,000 € 0,677 € / 3,385 €
Insidious 2011-06-15 5 0,000 € / 0,000 € 149,734 € / 748,670 €
Pourquoi tu pleures ? 2011-06-15 5 0,000 € / 0,000 € 50,961 € / 254,805 €
Kung fu panda 2 2011-06-15 5 0,000 € / 0,000 € 644,228 € / 3 221,140 €
L'affaire Rachel Singer 2011-06-15 5 0,000 € / 0,000 € 76,469 € / 382,345 €
The prodigies 2011-06-08 5 0,000 € / 0,000 € 55,963 € / 279,815 €
American translation 2011-06-08 5 0,000 € / 0,000 € 2,593 € / 12,965 €
Le chat du rabbin 2011-06-01 5 0,000 € / 0,000 € 163,424 € / 817,120 €
Un baiser papillon 2011-06-01 5 0,000 € / 0,000 € 13,737 € / 68,685 €
Rendez-vous avec un ange 2011-06-01 5 0,000 € / 0,000 € 4,720 € / 23,600 €
La défense Lincoln 2011-05-25 5 0,000 € / 0,000 € 116,455 € / 582,275 €
Very bad trip 2 2011-05-25 5 0,000 € / 0,000 € 731,925 € / 3 659,625 €
The tree of life 2011-05-18 5 0,000 € / 0,000 € 285,753 € / 1 428,765 €
La conquête 2011-05-18 5 0,000 € / 0,000 € 246,233 € / 1 231,165 €
Pirates des Caraïbes la fontaine de jouvence 2011-05-18 5 0,000 € / 0,000 € 896,662 € / 4 483,310 €
Priest 2011-05-11 5 0,000 € / 0,000 € 82,885 € / 414,425 €
Minuit à Paris 2011-05-11 5 0,000 € / 0,000 € 705,652 € / 3 528,260 €
La solitude des nombres premiers 2011-05-04 5 0,000 € / 0,000 € 11,054 € / 55,270 €
De l'eau pour les éléphants 2011-05-04 5 0,000 € / 0,000 € 153,325 € / 766,625 €
Où va la nuit 2011-05-04 5 0,000 € / 0,000 € 31,592 € / 157,960 €
Fast & furious 5 2011-05-04 5 0,000 € / 0,000 € 565,841 € / 2 829,205 €
La ballade de l'impossible 2011-05-04 5 0,000 € / 0,000 € 35,440 € / 177,200 €
Thor 2011-04-27 5 0,000 € / 0,000 € 470,050 € / 2 350,250 €
Coup d'éclat 2011-04-27 5 0,000 € / 0,000 € 38,875 € / 194,375 €
Moi, Michel G, milliardaire, maître du monde 2011-04-27 5 0,000 € / 0,000 € 43,736 € / 218,680 €
La fille du puisatier 2011-04-20 5 0,000 € / 0,000 € 176,324 € / 881,620 €
La croisière 2011-04-20 5 0,000 € / 0,000 € 97,219 € / 486,095 €
Le chaperon rouge 2011-04-20 5 0,000 € / 0,000 € 101,850 € / 509,250 €
Tomboy 2011-04-20 5 0,000 € / 0,000 € 108,735 € / 543,675 €
Détective Dee le mystère de la flamme fantôme 2011-04-20 5 0,000 € / 0,000 € 101,737 € / 508,685 €
Robert Mitchum est mort 2011-04-13 5 0,000 € / 0,000 € 5,109 € / 25,545 €
Mon père est femme de ménage 2011-04-13 5 0,000 € / 0,000 € 65,923 € / 329,615 €
La proie 2011-04-13 5 0,000 € / 0,000 € 104,352 € / 521,760 €
Winnie l'ourson : bienvenue dans la forêt des rêves bleus 2011-04-13 5 0,000 € / 0,000 € 28,421 € / 142,105 €
Plastic planet 2011-04-06 5 0,000 € / 0,000 € 1,027 € / 5,135 €
Numéro quatre 2011-04-06 5 0,000 € / 0,000 € 200,315 € / 1 001,575 €
Essential killing 2011-04-06 5 0,000 € / 0,000 € 25,013 € / 125,065 €
Philibert 2011-04-06 5 0,000 € / 0,000 € 18,515 € / 92,575 €
Pina (3D) 2011-04-06 5 0,000 € / 0,000 € 134,158 € / 670,790 €
The company men 2011-03-30 5 0,000 € / 0,000 € 88,863 € / 444,315 €
Je n'ai rien oublié 2011-03-30 5 0,000 € / 0,000 € 43,129 € / 215,645 €
Tous les soleils 2011-03-30 5 0,000 € / 0,000 € 126,455 € / 632,275 €
Bonobos 2011-03-30 5 0,000 € / 0,000 € 22,417 € / 112,085 €
Les yeux de sa mère 2011-03-23 5 0,000 € / 0,000 € 65,205 € / 326,025 €
Rango 2011-03-23 5 0,000 € / 0,000 € 334,245 € / 1 671,225 €
Le mytho 2011-03-23 5 0,000 € / 0,000 € 99,165 € / 495,825 €
Hell driver 2011-03-23 5 0,000 € / 0,000 € 67,004 € / 335,020 €
L'étrange affaire Angelica 2011-03-16 5 0,000 € / 0,000 € 16,497 € / 82,485 €
Ma part du gateau 2011-03-16 5 0,000 € / 0,000 € 253,350 € / 1 266,750 €
Route Irish 2011-03-16 5 0,000 € / 0,000 € 16,702 € / 83,510 €
Pollen 2011-03-16 5 0,000 € / 0,000 € 12,280 € / 61,400 €
Ha ha ha 2011-03-16 2 0,000 € / 0,000 € 13,215 € / 26,430 €
World invasion : battle Los Angeles 2011-03-16 5 0,000 € / 0,000 € 129,299 € / 646,495 €
Gaza-strophe Palestine 2011-03-16 4 0,000 € / 0,000 € 2,108 € / 8,432 €
Jimmy Rivière 2011-03-09 5 0,000 € / 0,000 € 5,261 € / 26,305 €
La ligne droite 2011-03-09 5 0,000 € / 0,000 € 22,228 € / 111,140 €
Le rite 2011-03-09 5 0,000 € / 0,000 € 247,264 € / 1 236,320 €
Winter's bone 2011-03-02 5 0,000 € / 0,000 € 57,202 € / 286,010 €
Le roman de ma femme 2011-03-02 5 0,000 € / 0,000 € 2,425 € / 12,125 €
La permission de minuit 2011-03-02 5 0,000 € / 0,000 € 27,667 € / 138,335 €
Sans identité 2011-03-02 5 0,000 € / 0,000 € 286,673 € / 1 433,365 €
Le bal des menteurs 2011-03-02 5 0,000 € / 0,000 € 2,890 € / 14,450 €
Une pure affaire 2011-03-02 5 0,000 € / 0,000 € 54,080 € / 270,400 €
Sanctum 2011-02-23 5 0,000 € / 0,000 € 61,956 € / 309,780 €
True grit 2011-02-23 5 0,000 € / 0,000 € 456,546 € / 2 282,730 €
Toi, moi, les autres 2011-02-23 5 0,000 € / 0,000 € 55,681 € / 278,405 €
127 heures 2011-02-23 5 0,000 € / 0,000 € 136,525 € / 682,625 €
Les femmes du 6è étage 2011-02-16 5 0,000 € / 0,000 € 502,591 € / 2 512,955 €
Halal, police d'état 2011-02-16 5 0,000 € / 0,000 € 255,497 € / 1 277,485 €
Sex friends 2011-02-16 5 0,000 € / 0,000 € 289,874 € / 1 449,370 €
Animaux & Cie en 3D 2011-02-09 5 0,000 € / 0,000 € 175,039 € / 875,195 €
Yogi l'ours 2011-02-09 5 0,000 € / 0,000 € 51,434 € / 257,170 €
Océanosaures 3D, voyage au temps des dinosaures 2011-02-02 5 0,000 € / 0,000 € 405,239 € / 2 026,195 €
Rien à déclarer 2011-02-02 5 0,000 € / 0,000 € 816,084 € / 4 080,420 €
Comment savoir 2011-01-26 5 0,000 € / 0,000 € 47,571 € / 237,855 €
Propriété interdite 2011-01-19 5 0,000 € / 0,000 € 8,586 € / 42,930 €
Gigola 2011-01-19 5 0,000 € / 0,000 € 1,667 € / 8,335 €
Apres Béjart 2011-01-19 5 0,000 € / 0,000 € 5,154 € / 25,770 €
The green hornet 2011-01-12 5 0,000 € / 0,000 € 243,570 € / 1 217,850 €
Le dernier des templiers 2011-01-12 5 0,000 € / 0,000 € 242,364 € / 1 211,820 €
Harry brown 2011-01-12 5 0,000 € / 0,000 € 26,547 € / 132,735 €
Arrietty le petit monde des chapardeurs 2011-01-12 5 0,000 € / 0,000 € 240,583 € / 1 202,915 €
Le quattro volte 2010-12-29 5 0,000 € / 0,000 € 15,332 € / 76,660 €
Les yeux de Julia 2010-12-22 5 0,000 € / 0,000 € 20,248 € / 101,240 €
Another year 2010-12-22 5 0,000 € / 0,000 € 135,431 € / 677,155 €
Burlesque 2010-12-22 5 0,000 € / 0,000 € 53,088 € / 265,440 €
Les chimpanzés de l'espace 2 3d 2010-12-22 5 0,000 € / 0,000 € 26,994 € / 134,970 €
Une vie de chat 2010-12-15 5 0,000 € / 0,000 € 36,094 € / 180,470 €
Megamind 2010-12-15 5 0,000 € / 0,000 € 290,085 € / 1 450,425 €
The tourist 2010-12-15 5 0,000 € / 0,000 € 242,045 € / 1 210,225 €
De vrais mensonges 2010-12-08 5 0,000 € / 0,000 € 123,150 € / 615,750 €
Holiday 2010-12-08 5 0,000 € / 0,000 € 28,195 € / 140,975 €
Les trois prochains jours 2010-12-08 5 0,000 € / 0,000 € 72,470 € / 362,350 €
Mon pote 2010-12-01 5 0,000 € / 0,000 € 40,988 € / 204,940 €
Harry Potter et les reliques de la mort partie 1 2010-11-24 5 0,000 € / 0,000 € 1 135,912 € / 5 679,560 €
Le nom des gens 2010-11-24 5 0,000 € / 0,000 € 281,520 € / 1 407,600 €
Outrage 2010-11-24 5 0,000 € / 0,000 € 18,653 € / 93,265 €
L'apprenti Père Noël 2010-11-24 5 0,000 € / 0,000 € 70,520 € / 352,600 €
Mords-moi sans hésitation 2010-11-24 5 0,000 € / 0,000 € 64,823 € / 324,115 €
Benvenuti al sud 2010-11-24 5 0,000 € / 0,000 € 7,483 € / 37,415 €
Le village des ombres 2010-11-17 5 0,000 € / 0,000 € 8,476 € / 42,380 €
Mon babysitter 2010-11-17 5 0,000 € / 0,000 € 25,295 € / 126,475 €
No et moi 2010-11-17 5 0,000 € / 0,000 € 49,715 € / 248,575 €
Ce n'est qu'un début 2010-11-17 4 0,000 € / 0,000 € 14,137 € / 56,548 €
Raiponce 2010-11-17 5 0,000 € / 0,000 € 840,548 € / 4 202,740 €
Le secret de Charlie 2010-11-10 5 0,000 € / 0,000 € 12,749 € / 63,745 €
Potiche 2010-11-10 5 0,000 € / 0,000 € 556,135 € / 2 780,675 €
Saw 3D chapitre final 2010-11-10 5 0,000 € / 0,000 € 116,768 € / 583,840 €
Rubber 2010-11-10 3 0,000 € / 0,000 € 18,440 € / 55,320 €
Fair game 2010-11-03 5 0,000 € / 0,000 € 105,503 € / 527,515 €
Buried 2010-11-03 5 0,000 € / 0,000 € 109,306 € / 546,530 €
Very bad cops 2010-10-27 5 0,000 € / 0,000 € 176,704 € / 883,520 €
Vénus noire 2010-10-27 5 0,000 € / 0,000 € 71,430 € / 357,150 €
Le royaume de Ga'hoole la légende des gardiens 2010-10-27 5 0,000 € / 0,000 € 119,462 € / 597,310 €
The american 2010-10-27 5 0,000 € / 0,000 € 149,688 € / 748,440 €
Il reste du jambon ? 2010-10-27 5 0,000 € / 0,000 € 225,282 € / 1 126,410 €
Alpha et Omega 2010-10-20 5 0,000 € / 0,000 € 80,808 € / 404,040 €
Biutiful 2010-10-20 5 0,000 € / 0,000 € 108,916 € / 544,580 €
Paranormal activity 2 2010-10-20 5 0,000 € / 0,000 € 208,952 € / 1 044,760 €
La vie au ranch 2010-10-13 5 0,000 € / 0,000 € 14,827 € / 74,135 €
Elle s'appelait Sarah 2010-10-13 5 0,000 € / 0,000 € 179,862 € / 899,310 €
Au fond des bois 2010-10-13 5 0,000 € / 0,000 € 12,782 € / 63,910 €
Les rêves dansants sur les pas de Pina Bausch 2010-10-13 5 0,000 € / 0,000 € 60,574 € / 302,870 €
Donnant donnant 2010-10-06 5 0,000 € / 0,000 € 62,922 € / 314,610 €
Tout va bien ! The kids are all right 2010-10-06 5 0,000 € / 0,000 € 36,144 € / 180,720 €
Moi, moche et méchant 2010-10-06 5 0,000 € / 0,000 € 669,041 € / 3 345,205 €
Les amours imaginaires 2010-09-29 5 0,000 € / 0,000 € 62,971 € / 314,855 €
Un homme qui crie 2010-09-29 5 0,000 € / 0,000 € 18,787 € / 93,935 €
Sans queue ni tête 2010-09-29 5 0,000 € / 0,000 € 17,468 € / 87,340 €
Ao le dernier Néandertal 2010-09-29 5 0,000 € / 0,000 € 44,964 € / 224,820 €
Homme au bain 2010-09-22 5 0,000 € / 0,000 € 9,537 € / 47,685 €
Amore 2010-09-22 5 0,000 € / 0,000 € 65,041 € / 325,205 €
Simon Werner a disparu... 2010-09-22 5 0,000 € / 0,000 € 40,555 € / 202,775 €
Yves Saint Laurent - Pierre Berge, l'amour fou 2010-09-22 5 0,000 € / 0,000 € 17,240 € / 86,200 €
Mange prie aime 2010-09-22 5 0,000 € / 0,000 € 174,891 € / 874,455 €
Happy few 2010-09-15 5 0,000 € / 0,000 € 43,734 € / 218,670 €
Ces amours-là 2010-09-15 5 0,000 € / 0,000 € 73,552 € / 367,760 €
The town 2010-09-15 5 0,000 € / 0,000 € 407,400 € / 2 037,000 €
The housemaid 2010-09-15 5 0,000 € / 0,000 € 31,491 € / 157,455 €
Le dernier exorcisme 2010-09-15 5 0,000 € / 0,000 € 89,693 € / 448,465 €
Twelve 2010-09-08 5 0,000 € / 0,000 € 58,101 € / 290,505 €
Copains pour toujours 2010-09-08 5 0,000 € / 0,000 € 99,560 € / 497,800 €
Des hommes et des dieux 2010-09-08 5 0,000 € / 0,000 € 670,911 € / 3 354,555 €
Benda Bilili ! 2010-09-08 5 0,000 € / 0,000 € 60,353 € / 301,765 €
Be bad 2010-09-01 5 0,000 € / 0,000 € 42,934 € / 214,670 €
Salt 2010-08-25 5 0,000 € / 0,000 € 364,183 € / 1 820,915 €
Une famille très moderne 2010-08-25 5 0,000 € / 0,000 € 73,242 € / 366,210 €
600 kilos d'or pur 2010-08-25 5 0,000 € / 0,000 € 32,659 € / 163,295 €
Poetry 2010-08-25 5 0,000 € / 0,000 € 66,780 € / 333,900 €
Sexy dance 3 the battle 2010-08-18 5 0,000 € / 0,000 € 222,423 € / 1 112,115 €
Crime d'amour 2010-08-18 5 0,000 € / 0,000 € 162,449 € / 812,245 €
Chatroom 2010-08-11 5 0,000 € / 0,000 € 12,086 € / 60,430 €
L'arbre 2010-08-11 5 0,000 € / 0,000 € 77,107 € / 385,535 €
Le voyage extraordinaire de Samy 2010-08-11 5 0,000 € / 0,000 € 180,604 € / 903,020 €
L'apprenti sorcier 2010-08-11 5 0,000 € / 0,000 € 285,116 € / 1 425,580 €
Insoupçonnable 2010-08-04 5 0,000 € / 0,000 € 40,550 € / 202,750 €
Night and day 2010-07-28 5 0,000 € / 0,000 € 373,674 € / 1 868,370 €
L'âge de raison 2010-07-28 5 0,000 € / 0,000 € 85,634 € / 428,170 €
Le dernier maître de l'air 2010-07-28 5 0,000 € / 0,000 € 278,208 € / 1 391,040 €
Le premier qui l'a dit 2010-07-21 5 0,000 € / 0,000 € 81,941 € / 409,705 €
Toy story 3 2010-07-14 5 0,000 € / 0,000 € 802,926 € / 4 014,630 €
Tamara Drewe 2010-07-14 5 0,000 € / 0,000 € 253,154 € / 1 265,770 €
Repo men 2010-07-14 5 0,000 € / 0,000 € 8,684 € / 43,420 €
Copacabana 2010-07-07 5 0,000 € / 0,000 € 98,403 € / 492,015 €
Millenium 2 2010-06-30 5 0,000 € / 0,000 € 103,509 € / 517,545 €
La disparition d'Alice Creed 2010-06-30 5 0,000 € / 0,000 € 21,682 € / 108,410 €
Shrek 4, il était une fin 2010-06-30 5 0,000 € / 0,000 € 855,523 € / 4 277,615 €
Tournée 2010-06-30 5 0,000 € / 0,000 € 174,492 € / 872,460 €
Kiss & kill 2010-06-23 5 0,000 € / 0,000 € 229,124 € / 1 145,620 €
Les petits ruisseaux 2010-06-23 4 0,000 € / 0,000 € 57,436 € / 229,744 €
Dog pound 2010-06-23 5 0,000 € / 0,000 € 86,342 € / 431,710 €
Top cops 2010-06-23 5 0,000 € / 0,000 € 79,067 € / 395,335 €
Le caméléon 2010-06-23 5 0,000 € / 0,000 € 20,413 € / 102,065 €
Bébés 2010-06-16 5 0,000 € / 0,000 € 77,746 € / 388,730 €
Fatal 2010-06-16 5 0,000 € / 0,000 € 259,375 € / 1 296,875 €
Année bissextile 2010-06-16 5 0,000 € / 0,000 € 13,312 € / 66,560 €
When you're strange un film sur les doors 2010-06-09 5 0,000 € / 0,000 € 65,409 € / 327,045 €
Les meilleurs amis du monde 2010-06-09 5 0,000 € / 0,000 € 123,608 € / 618,040 €
The Crazies 2010-06-09 5 0,000 € / 0,000 € 54,714 € / 273,570 €
La fete des voisins le film ! 2010-05-26 5 0,000 € / 0,000 € 1,256 € / 6,280 €
Une nuit au cirque 2010-05-26 5 0,000 € / 0,000 € 0,069 € / 0,345 €
Copie conforme 2010-05-19 5 0,000 € / 0,000 € 98,883 € / 494,415 €
Le plan B 2010-05-19 5 0,000 € / 0,000 € 168,193 € / 840,965 €
Street dance 3D 2010-05-19 5 0,000 € / 0,000 € 144,099 € / 720,495 €
Film socialisme 2010-05-19 5 0,000 € / 0,000 € 13,863 € / 69,315 €
Entre nous deux 2010-05-12 5 0,000 € / 0,000 € 0,000 € / 0,000 €
Imogène McCarthery 2010-05-05 5 0,000 € / 0,000 € 151,119 € / 755,595 €
Mourir comme un homme 2010-04-28 5 0,000 € / 0,000 € 6,550 € / 32,750 €
Le mariage à trois 2010-04-21 5 0,000 € / 0,000 € 13,195 € / 65,975 €
La comtesse 2010-04-21 5 0,000 € / 0,000 € 59,540 € / 297,700 €
Nuits d'ivresse printanière 2010-04-14 4 0,000 € / 0,000 € 14,601 € / 58,404 €
Les aventures extraordinaires d'Adèle Blanc-Sec 2010-04-14 5 0,000 € / 0,000 € 375,364 € / 1 876,820 €
Le chasseur de primes 2010-04-14 5 0,000 € / 0,000 € 81,636 € / 408,180 €
Gardiens de l'ordre 2010-04-07 5 0,000 € / 0,000 € 39,881 € / 199,405 €
Le choc des titans 2010-04-07 5 0,000 € / 0,000 € 447,552 € / 2 237,760 €
Ensemble, nous allons vivre une très, très grande histoire d'amour... 2010-04-07 5 0,000 € / 0,000 € 26,270 € / 131,350 €
Dragons 3D 2010-03-31 5 0,000 € / 0,000 € 479,509 € / 2 397,545 €
Manolete 2010-03-31 5 0,000 € / 0,000 € 15,491 € / 77,455 €
Toutes les filles pleurent 2010-03-31 5 0,000 € / 0,000 € 2,873 € / 14,365 €
White material 2010-03-24 5 0,000 € / 0,000 € 47,743 € / 238,715 €
All about Steve 2010-03-24 5 0,000 € / 0,000 € 0,193 € / 0,965 €
Tout ce qui brille 2010-03-24 5 0,000 € / 0,000 € 468,228 € / 2 341,140 €
Mumu 2010-03-24 5 0,000 € / 0,000 € 6,820 € / 34,100 €
Soul kitchen 2010-03-17 5 0,000 € / 0,000 € 108,931 € / 544,655 €
Blanc comme neige 2010-03-17 5 0,000 € / 0,000 € 44,455 € / 222,275 €
Bus palladium 2010-03-17 5 0,000 € / 0,000 € 22,758 € / 113,790 €
Mesures exceptionnelles 2010-03-17 5 0,000 € / 0,000 € 18,124 € / 90,620 €
Nous trois 2010-03-17 5 0,000 € / 0,000 € 3,769 € / 18,845 €
Pièce montée 2010-03-10 5 0,000 € / 0,000 € 105,598 € / 527,990 €
Fleur du désert 2010-03-10 5 0,000 € / 0,000 € 43,581 € / 217,905 €
Thelma, Louise et Chantal 2010-03-03 5 0,000 € / 0,000 € 35,859 € / 179,295 €
The ghost writer 2010-03-03 5 0,000 € / 0,000 € 390,154 € / 1 950,770 €
Liberté 2010-02-24 5 0,000 € / 0,000 € 43,622 € / 218,110 €
Coursier 2010-02-24 5 0,000 € / 0,000 € 80,467 € / 402,335 €
Une éducation 2010-02-24 5 0,000 € / 0,000 € 70,006 € / 350,030 €
Thérapie de couples 2010-02-24 5 0,000 € / 0,000 € 32,893 € / 164,465 €
La robe du soir 2010-02-24 5 0,000 € / 0,000 € 2,332 € / 11,660 €
La reine des pommes 2010-02-24 5 0,000 € / 0,000 € 12,956 € / 64,780 €
Fantastic Mr. Fox 2010-02-17 5 0,000 € / 0,000 € 121,988 € / 609,940 €
Ensemble c'est trop 2010-02-17 5 0,000 € / 0,000 € 64,329 € / 321,645 €
Le mac 2010-02-17 5 0,000 € / 0,000 € 285,653 € / 1 428,265 €
C'est ici que je vis 2010-02-10 5 0,000 € / 0,000 € 2,335 € / 11,675 €
Percy Jackson le voleur de foudre 2010-02-10 5 0,000 € / 0,000 € 266,088 € / 1 330,440 €
L'autre Dumas 2010-02-10 5 0,000 € / 0,000 € 76,013 € / 380,065 €
Protéger & servir 2010-02-03 5 0,000 € / 0,000 € 81,701 € / 408,505 €
Lebanon 2010-02-03 5 0,000 € / 0,000 € 28,026 € / 140,130 €
Une exécution ordinaire 2010-02-03 5 0,000 € / 0,000 € 75,298 € / 376,490 €
Océans 2010-01-27 5 0,000 € / 0,000 € 510,256 € / 2 551,280 €
Le refuge 2010-01-27 5 0,000 € / 0,000 € 34,638 € / 173,190 €
Mother 2010-01-27 5 0,000 € / 0,000 € 38,997 € / 194,985 €
Mr. Nobody 2010-01-13 5 0,000 € / 0,000 € 68,646 € / 343,230 €
Blindes 2010-01-13 5 0,000 € / 0,000 € 44,541 € / 222,705 €
Une petite zone de turbulences 2010-01-13 5 0,000 € / 0,000 € 140,241 € / 701,205 €
Agora 2010-01-06 5 0,000 € / 0,000 € 106,245 € / 531,225 €
Le siffleur 2010-01-06 5 0,000 € / 0,000 € 104,291 € / 521,455 €
Les chats persans 2009-12-23 5 0,000 € / 0,000 € 85,634 € / 428,170 €
Pas si simple 2009-12-23 5 0,000 € / 0,000 € 245,411 € / 1 227,055 €
Le soliste 2009-12-23 5 0,000 € / 0,000 € 22,141 € / 110,705 €
Solomon Kane 2009-12-23 5 0,000 € / 0,000 € 101,397 € / 506,985 €
Tetro 2009-12-23 5 0,000 € / 0,000 € 162,972 € / 814,860 €
Max et les maximonstres 2009-12-16 5 0,000 € / 0,000 € 63,968 € / 319,840 €
Avatar 2009-12-16 5 0,000 € / 0,000 € 2 741,865 € / 13 709,325 €
Le père de mes enfants 2009-12-16 5 0,000 € / 0,000 € 28,731 € / 143,655 €
Kerity la maison des contes 2009-12-16 5 0,000 € / 0,000 € 41,136 € / 205,680 €
La fille la plus heureuse du monde 2009-12-16 5 0,000 € / 0,000 € 2,824 € / 14,120 €
Loup 2009-12-09 5 0,000 € / 0,000 € 138,038 € / 690,190 €
Qu'un seul tienne et les autres suivront 2009-12-09 5 0,000 € / 0,000 € 11,749 € / 58,745 €
Oscar et la dame rose 2009-12-09 5 0,000 € / 0,000 € 24,386 € / 121,930 €
Paranormal activity 2009-12-02 5 0,000 € / 0,000 € 306,607 € / 1 533,035 €
La folle histoire d'amour de Simon Eskenazy 2009-12-02 5 0,000 € / 0,000 € 22,143 € / 110,715 €
La famille Wolberg 2009-12-02 5 0,000 € / 0,000 € 20,778 € / 103,890 €
L'assistant du vampire 2009-12-02 5 0,000 € / 0,000 € 14,491 € / 72,455 €
La domination masculine 2009-11-25 5 0,000 € / 0,000 € 15,188 € / 75,940 €
Hadewijch 2009-11-25 5 0,000 € / 0,000 € 10,658 € / 53,290 €
Une affaire d'état 2009-11-25 5 0,000 € / 0,000 € 68,717 € / 343,585 €
Le vilain 2009-11-25 5 0,000 € / 0,000 € 193,570 € / 967,850 €
Vincere 2009-11-25 5 0,000 € / 0,000 € 97,399 € / 486,995 €
Twilight - chapitre 2 : tentation 2009-11-18 5 0,000 € / 0,000 € 795,234 € / 3 976,170 €
Kinatay 2009-11-18 5 0,000 € / 0,000 € 6,299 € / 31,495 €
Lettre à Anna 2009-11-18 5 0,000 € / 0,000 € 1,567 € / 7,835 €
A l'origine 2009-11-11 5 0,000 € / 0,000 € 93,349 € / 466,745 €
2012 2009-11-11 5 0,000 € / 0,000 € 896,570 € / 4 482,850 €
L'enfer d'Henri-Georges Clouzot 2009-11-11 5 0,000 € / 0,000 € 27,900 € / 139,500 €
La religieuse portugaise 2009-11-11 5 0,000 € / 0,000 € 7,887 € / 39,435 €
The box 2009-11-04 5 0,000 € / 0,000 € 140,517 € / 702,585 €
Le concert 2009-11-04 5 0,000 € / 0,000 € 593,387 € / 2 966,935 €
Les herbes folles 2009-11-04 5 0,000 € / 0,000 € 129,628 € / 648,140 €
Irène 2009-10-28 5 0,000 € / 0,000 € 15,646 € / 78,230 €
Cineman 2009-10-28 5 0,000 € / 0,000 € 69,265 € / 346,325 €
Tempête de boulettes géantes 2009-10-21 5 0,000 € / 0,000 € 132,871 € / 664,355 €
Sin nombre 2009-10-21 5 0,000 € / 0,000 € 74,067 € / 370,335 €
Mission-G 2009-10-14 5 0,000 € / 0,000 € 255,843 € / 1 279,215 €
Mademoiselle Chambon 2009-10-14 5 0,000 € / 0,000 € 125,462 € / 627,310 €
The cove - la baie de la honte 2009-09-30 5 0,000 € / 0,000 € 2,713 € / 13,565 €
Je suis heureux que ma mère soit vivante 2009-09-30 5 0,000 € / 0,000 € 18,919 € / 94,595 €
Pandorum 2009-09-30 5 0,000 € / 0,000 € 8,421 € / 42,105 €
Le dernier pour la route 2009-09-23 5 0,000 € / 0,000 € 71,020 € / 355,100 €
La proposition 2009-09-23 5 0,000 € / 0,000 € 249,311 € / 1 246,555 €
Hotel Woodstock 2009-09-23 5 0,000 € / 0,000 € 67,764 € / 338,820 €
Pierre et le loup 2009-09-23 5 0,000 € / 0,000 € 8,834 € / 44,170 €
L'armée du crime 2009-09-16 5 0,000 € / 0,000 € 75,811 € / 379,055 €
Julie & Julia 2009-09-16 5 0,000 € / 0,000 € 71,647 € / 358,235 €
Rien de personnel 2009-09-16 5 0,000 € / 0,000 € 50,463 € / 252,315 €
Fish tank 2009-09-16 5 0,000 € / 0,000 € 82,371 € / 411,855 €
Ultimate game 2009-09-09 5 0,000 € / 0,000 € 94,266 € / 471,330 €
36 vues du pic St-Loup 2009-09-09 5 0,000 € / 0,000 € 6,817 € / 34,085 €
Le coach 2009-09-09 5 0,000 € / 0,000 € 162,527 € / 812,635 €
L'abominable vérité 2009-08-26 5 0,000 € / 0,000 € 193,865 € / 969,325 €
Voyage sous les mers 3D 2009-08-26 5 0,000 € / 0,000 € 12,905 € / 64,525 €
Sri Lanka national handball team 2009-08-19 5 0,000 € / 0,000 € 9,753 € / 48,765 €
Sita chante le blues 2009-08-12 5 0,000 € / 0,000 € 2,496 € / 12,480 €
Le temps qu'il reste 2009-08-12 5 0,000 € / 0,000 € 67,469 € / 337,345 €
Demain dès l'aube 2009-08-12 5 0,000 € / 0,000 € 15,748 € / 78,740 €
Partir 2009-08-12 5 0,000 € / 0,000 € 135,057 € / 675,285 €
Une semaine sur deux (et la moitié des vacances scolaires) 2009-07-22 5 0,000 € / 0,000 € 86,922 € / 434,610 €
Le roi de l'évasion 2009-07-15 5 0,000 € / 0,000 € 12,056 € / 60,280 €
Sans rancune ! 2009-07-15 5 0,000 € / 0,000 € 5,666 € / 28,330 €
Je ne dis pas non 2009-07-15 5 0,000 € / 0,000 € 1,114 € / 5,570 €
Bronson 2009-07-15 5 0,000 € / 0,000 € 45,544 € / 227,720 €
Harry Potter et le prince de sang-mêlé 2009-07-15 5 0,000 € / 0,000 € 989,609 € / 4 948,045 €
Tricheuse 2009-07-15 5 0,000 € / 0,000 € 6,884 € / 34,420 €
Bancs publics (Versailles rive droite) 2009-07-08 5 0,000 € / 0,000 € 100,516 € / 502,580 €
Girlfriend experience 2009-07-08 5 0,000 € / 0,000 € 11,322 € / 56,610 €
Bambou 2009-07-08 5 0,000 € / 0,000 € 29,208 € / 146,040 €
Whatever works 2009-07-01 5 0,000 € / 0,000 € 388,597 € / 1 942,985 €
L'âge de glace 3, le temps des dinosaures 2009-07-01 5 0,000 € / 0,000 € 1 321,660 € / 6 608,300 €
Le hérisson 2009-07-01 5 0,000 € / 0,000 € 161,680 € / 808,400 €
Transformers 2 la revanche 2009-06-24 5 0,000 € / 0,000 € 509,901 € / 2 549,505 €
Jeux de pouvoir 2009-06-24 5 0,000 € / 0,000 € 265,161 € / 1 325,805 €
Smart people 2009-06-17 5 0,000 € / 0,000 € 0,658 € / 3,290 €
Tellement proches 2009-06-17 5 0,000 € / 0,000 € 268,957 € / 1 344,785 €
Jonas brothers : le concert événement 3D 2009-06-17 5 0,000 € / 0,000 € 1,168 € / 5,840 €
Dancing girls 2009-06-10 5 0,000 € / 0,000 € 50,612 € / 253,060 €
Coraline 2009-06-10 5 0,000 € / 0,000 € 136,805 € / 684,025 €
Je vais te manquer 2009-06-10 5 0,000 € / 0,000 € 49,941 € / 249,705 €
Dauphins et baleines 3D, nomades des mers 2009-06-10 5 0,000 € / 0,000 € 179,077 € / 895,385 €
The women 2009-06-03 5 0,000 € / 0,000 € 49,326 € / 246,630 €
Étreintes brisées 2009-05-20 5 0,000 € / 0,000 € 308,121 € / 1 540,605 €
La nuit au musée 2 2009-05-20 5 0,000 € / 0,000 € 333,141 € / 1 665,705 €
Confessions d'une accro du shopping 2009-05-20 5 0,000 € / 0,000 € 147,935 € / 739,675 €
Anges et démons 2009-05-13 5 0,000 € / 0,000 € 488,639 € / 2 443,195 €
Millenium 2009-05-13 5 0,000 € / 0,000 € 364,489 € / 1 822,445 €
Je l'aimais 2009-05-06 5 0,000 € / 0,000 € 187,100 € / 935,500 €
Commis d'office 2009-05-06 5 0,000 € / 0,000 € 33,253 € / 166,265 €
Un mariage de rêve 2009-05-06 5 0,000 € / 0,000 € 148,266 € / 741,330 €
La femme sans tête 2009-04-29 5 0,000 € / 0,000 € 6,647 € / 33,235 €
Humains 2009-04-22 5 0,000 € / 0,000 € 11,485 € / 57,425 €
Celle que j'aime 2009-04-22 5 0,000 € / 0,000 € 38,611 € / 193,055 €
Coco avant Chanel 2009-04-22 5 0,000 € / 0,000 € 289,729 € / 1 448,645 €
Le secret de Lily Owens 2009-04-22 5 0,000 € / 0,000 € 5,867 € / 29,335 €
La dernière maison sur la gauche 2009-04-22 5 0,000 € / 0,000 € 44,399 € / 221,995 €
Dans la brume électrique 2009-04-15 5 0,000 € / 0,000 € 294,696 € / 1 473,480 €
OSS 117 Rio ne répond plus... 2009-04-15 5 0,000 € / 0,000 € 746,678 € / 3 733,390 €
Let's make money 2009-04-15 5 0,000 € / 0,000 € 24,628 € / 123,140 €
Un été italien 2009-04-15 5 0,000 € / 0,000 € 11,268 € / 56,340 €
Nous resterons sur terre 2009-04-08 5 0,000 € / 0,000 € 2,021 € / 10,105 €
Chéri 2009-04-08 5 0,000 € / 0,000 € 86,299 € / 431,495 €
Villa amalia 2009-04-08 5 0,000 € / 0,000 € 89,506 € / 447,530 €
Ponyo sur la falaise 2009-04-08 5 0,000 € / 0,000 € 225,262 € / 1 126,310 €
Erreur de la banque en votre faveur 2009-04-08 5 0,000 € / 0,000 € 145,979 € / 729,895 €
La véritable histoire du Chat Botté 2009-04-01 5 0,000 € / 0,000 € 46,114 € / 230,570 €
Predictions 2009-04-01 5 0,000 € / 0,000 € 328,898 € / 1 644,490 €
Dragonball evolution 2009-04-01 5 0,000 € / 0,000 € 84,619 € / 423,095 €
Monstres contre aliens 2009-04-01 5 0,000 € / 0,000 € 267,175 € / 1 335,875 €
Le chihuahua de Beverly Hills 2009-03-25 5 0,000 € / 0,000 € 47,345 € / 236,725 €
Duplicity 2009-03-25 5 0,000 € / 0,000 € 209,213 € / 1 046,065 €
Un chat un chat 2009-03-25 5 0,000 € / 0,000 € 15,090 € / 75,450 €
Le petit chat curieux 2009-03-25 5 0,000 € / 0,000 € 4,170 € / 20,850 €
La journée de la jupe 2009-03-25 5 0,000 € / 0,000 € 49,139 € / 245,695 €
Une famille brésilienne 2009-03-18 5 0,000 € / 0,000 € 26,732 € / 133,660 €
Coco 2009-03-18 5 0,000 € / 0,000 € 722,585 € / 3 612,925 €
La fille du RER 2009-03-18 5 0,000 € / 0,000 € 63,830 € / 319,150 €
Je te mangerais 2009-03-11 5 0,000 € / 0,000 € 9,079 € / 45,395 €
L'enquête the international 2009-03-11 5 0,000 € / 0,000 € 92,940 € / 464,700 €
Welcome 2009-03-11 5 0,000 € / 0,000 € 266,569 € / 1 332,845 €
Les passagers 2009-03-11 5 0,000 € / 0,000 € 52,534 € / 262,670 €
Le déjeuner du 15 août 2009-03-11 5 0,000 € / 0,000 € 59,510 € / 297,550 €
Loin de la terre brûlee 2009-03-11 5 0,000 € / 0,000 € 53,188 € / 265,940 €
Scar 3D 2009-03-11 4 0,000 € / 0,000 € 2,900 € / 11,600 €
La vague 2009-03-04 5 0,000 € / 0,000 € 69,913 € / 349,565 €
Watchmen 2009-03-04 5 0,000 € / 0,000 € 236,015 € / 1 180,075 €
Marley & moi 2009-03-04 5 0,000 € / 0,000 € 208,467 € / 1 042,335 €
Cyprien 2009-02-25 5 0,000 € / 0,000 € 155,340 € / 776,700 €
Bellamy 2009-02-25 5 0,000 € / 0,000 € 83,150 € / 415,750 €
Le code a changé 2009-02-18 5 0,000 € / 0,000 € 385,005 € / 1 925,025 €
Banlieue 13 ultimatum 2009-02-18 5 0,000 € / 0,000 € 218,696 € / 1 093,480 €
Ce que pensent les hommes 2009-02-11 5 0,000 € / 0,000 € 239,480 € / 1 197,400 €
Tony Manero 2009-02-11 5 0,000 € / 0,000 € 6,154 € / 30,770 €
Ricky 2009-02-11 5 0,000 € / 0,000 € 61,664 € / 308,320 €
Le séminaire caméra café 2009-02-11 5 0,000 € / 0,000 € 92,893 € / 464,465 €
Vendredi 13 2009-02-11 5 0,000 € / 0,000 € 47,310 € / 236,550 €
Morse 2009-02-04 5 0,000 € / 0,000 € 17,358 € / 86,790 €
Lol (laughing out loud) 2009-02-04 5 0,000 € / 0,000 € 603,472 € / 3 017,360 €
L'autre 2009-02-04 5 0,000 € / 0,000 € 34,974 € / 174,870 €
Volt, star malgré lui 2009-02-04 5 0,000 € / 0,000 € 555,638 € / 2 778,190 €
Walkyrie 2009-01-28 5 0,000 € / 0,000 € 195,104 € / 975,520 €
Le bal des actrices 2009-01-28 5 0,000 € / 0,000 € 131,139 € / 655,695 €
King Guillaume 2009-01-28 5 0,000 € / 0,000 € 40,686 € / 203,430 €
Che 2ème partie : Guérilla 2009-01-28 5 0,000 € / 0,000 € 48,107 € / 240,535 €
Diamant 13 2009-01-21 5 0,000 € / 0,000 € 36,104 € / 180,520 €
Envoyés très spéciaux 2009-01-21 5 0,000 € / 0,000 € 122,470 € / 612,350 €
Et après 2009-01-14 5 0,000 € / 0,000 € 84,447 € / 422,235 €
Sept vies 2009-01-14 5 0,000 € / 0,000 € 301,897 € / 1 509,485 €
Les insurgés 2009-01-14 5 0,000 € / 0,000 € 96,055 € / 480,275 €
La guerre des miss 2009-01-14 5 0,000 € / 0,000 € 36,671 € / 183,355 €
Un homme et son chien 2009-01-14 5 0,000 € / 0,000 € 36,697 € / 183,485 €
Slumdog millionaire 2009-01-14 5 0,000 € / 0,000 € 972,353 € / 4 861,765 €
Les trois singes 2009-01-14 5 0,000 € / 0,000 € 17,397 € / 86,985 €
Choron dernière 2009-01-07 5 0,000 € / 0,000 € 3,298 € / 16,490 €
Frozen river 2009-01-07 5 0,000 € / 0,000 € 63,075 € / 315,375 €
Che 1ère partie : L'argentin 2009-01-07 5 0,000 € / 0,000 € 164,641 € / 823,205 €
Un barrage contre le Pacifique 2009-01-07 5 0,000 € / 0,000 € 54,500 € / 272,500 €
Twilight - chapitre 1 : fascination 2009-01-07 5 0,000 € / 0,000 € 606,653 € / 3 033,265 €
The spirit 2008-12-31 5 0,000 € / 0,000 € 94,223 € / 471,115 €
Roman Polanski : Wanted and desired 2008-12-31 5 0,000 € / 0,000 € 4,277 € / 21,385 €
Louise-Michel 2008-12-24 5 0,000 € / 0,000 € 106,577 € / 532,885 €
I feel good ! 2008-12-24 5 0,000 € / 0,000 € 17,386 € / 86,930 €
Mister lonely 2008-12-17 5 0,000 € / 0,000 € 0,000 € / 0,000 €
Igor 2008-12-17 5 0,000 € / 0,000 € 32,460 € / 162,300 €
Niko, le petit renne 2008-12-17 5 0,000 € / 0,000 € 92,360 € / 461,800 €
Largo Winch 2008-12-17 5 0,000 € / 0,000 € 421,575 € / 2 107,875 €
Le chant des mariées 2008-12-17 5 0,000 € / 0,000 € 15,025 € / 75,125 €
Les ailes pourpres, le mystère des flamants 2008-12-17 5 0,000 € / 0,000 € 32,175 € / 160,875 €
Le bon, la brute, le cinglé 2008-12-17 5 0,000 € / 0,000 € 47,634 € / 238,170 €
Les plages d'Agnès 2008-12-17 5 0,000 € / 0,000 € 84,130 € / 420,650 €
Le jour où la terre s'arrêta 2008-12-10 5 0,000 € / 0,000 € 274,724 € / 1 373,620 €
Burn after reading 2008-12-10 5 0,000 € / 0,000 € 530,928 € / 2 654,640 €
L'emmerdeur 2008-12-10 5 0,000 € / 0,000 € 34,727 € / 173,635 €
Caos calmo 2008-12-10 5 0,000 € / 0,000 € 17,779 € / 88,895 €
Mia et le Migou 2008-12-10 5 0,000 € / 0,000 € 45,888 € / 229,440 €
Délire express 2008-12-03 5 0,000 € / 0,000 € 4,046 € / 20,230 €
Madagascar 2 : la grande évasion 2008-12-03 5 0,000 € / 0,000 € 993,711 € / 4 968,555 €
Agathe Cléry 2008-12-03 5 0,000 € / 0,000 € 279,451 € / 1 397,255 €
Je veux voir 2008-12-03 5 0,000 € / 0,000 € 4,622 € / 23,110 €
L'art de la pensée négative 2008-11-26 5 0,000 € / 0,000 € 2,200 € / 11,000 €
Une famille chinoise 2008-11-26 5 0,000 € / 0,000 € 6,638 € / 33,190 €
Le plaisir de chanter 2008-11-26 5 0,000 € / 0,000 € 28,890 € / 144,450 €
Baby blues 2008-11-26 5 0,000 € / 0,000 € 12,616 € / 63,080 €
Aide-toi, le ciel t'aidera 2008-11-26 5 0,000 € / 0,000 € 30,945 € / 154,725 €
The broken 2008-11-26 5 0,000 € / 0,000 € 2,942 € / 14,710 €
Musee haut, musée bas 2008-11-19 5 0,000 € / 0,000 € 132,100 € / 660,500 €
Mesrine : l'ennemi public numéro 1 2008-11-19 5 0,000 € / 0,000 € 441,507 € / 2 207,535 €
Home sweet home 2008-11-19 5 0,000 € / 0,000 € 4,580 € / 22,900 €
J'irai dormir à Hollywood 2008-11-19 5 0,000 € / 0,000 € 86,461 € / 432,305 €
Vilaine 2008-11-12 5 0,000 € / 0,000 € 215,826 € / 1 079,130 €
L'échange 2008-11-12 5 0,000 € / 0,000 € 429,718 € / 2 148,590 €
Les grandes personnes 2008-11-12 5 0,000 € / 0,000 € 33,826 € / 169,130 €
La bande a Baader 2008-11-12 5 0,000 € / 0,000 € 24,931 € / 124,655 €
Max Payne 2008-11-12 5 0,000 € / 0,000 € 112,297 € / 561,485 €
Saw V 2008-11-05 5 0,000 € / 0,000 € 117,616 € / 588,080 €
Quantum of solace 2008-11-05 5 0,000 € / 0,000 € 976,586 € / 4 882,930 €
Bouquet final 2008-11-05 5 0,000 € / 0,000 € 58,547 € / 292,735 €
La très très grande entreprise 2008-11-05 5 0,000 € / 0,000 € 83,350 € / 416,750 €
Nos enfants nous accuseront 2008-11-05 4 0,000 € / 0,000 € 8,336 € / 33,344 €
Mon espion préféré 2008-11-05 5 0,000 € / 0,000 € 9,560 € / 47,800 €
La vie moderne 2008-10-29 5 0,000 € / 0,000 € 77,208 € / 386,040 €
Home 2008-10-29 5 0,000 € / 0,000 € 35,383 € / 176,915 €
The visitor 2008-10-29 5 0,000 € / 0,000 € 105,428 € / 527,140 €
W. l'improbable président 2008-10-29 5 0,000 € / 0,000 € 69,650 € / 348,250 €
Fly me to the moon 3d 2008-10-29 4 0,000 € / 0,000 € 140,741 € / 562,964 €
Dernier maquis 2008-10-22 4 0,000 € / 0,000 € 11,723 € / 46,892 €
High school musical 3 : nos années lycée 2008-10-22 5 0,000 € / 0,000 € 418,407 € / 2 092,035 €
Les chimpanzés de l'espace 2008-10-22 5 0,000 € / 0,000 € 230,250 € / 1 151,250 €
Magique 2008-10-22 5 0,000 € / 0,000 € 22,670 € / 113,350 €
Course à la mort 2008-10-15 5 0,000 € / 0,000 € 66,696 € / 333,480 €
Le crime est notre affaire 2008-10-15 5 0,000 € / 0,000 € 327,892 € / 1 639,460 €
La famille Suricate 2008-10-15 5 0,000 € / 0,000 € 75,305 € / 376,525 €
Tokyo ! 2008-10-15 5 0,000 € / 0,000 € 35,041 € / 175,205 €
Eden Lake 2008-10-08 5 0,000 € / 0,000 € 27,181 € / 135,905 €
La frontière de l'aube 2008-10-08 5 0,000 € / 0,000 € 12,941 € / 64,705 €
Vicky Cristina Barcelona 2008-10-08 5 0,000 € / 0,000 € 699,332 € / 3 496,660 €
Super blonde 2008-10-08 5 0,000 € / 0,000 € 24,186 € / 120,930 €
Vinyan 2008-10-01 5 0,000 € / 0,000 € 7,447 € / 37,235 €
Séraphine 2008-10-01 5 0,000 € / 0,000 € 198,832 € / 994,160 €
Cliente 2008-10-01 5 0,000 € / 0,000 € 158,665 € / 793,325 €
De la guerre 2008-10-01 5 0,000 € / 0,000 € 6,783 € / 33,915 €
Go fast 2008-10-01 5 0,000 € / 0,000 € 199,248 € / 996,240 €
Harcelés 2008-10-01 5 0,000 € / 0,000 € 124,760 € / 623,800 €
Wackness 2008-09-24 4 0,000 € / 0,000 € 9,479 € / 37,916 €
Married life 2008-09-24 4 0,000 € / 0,000 € 16,094 € / 64,376 €
C'est dur d'être aimé par des cons 2008-09-17 5 0,000 € / 0,000 € 16,482 € / 82,410 €
Obscénité et vertu 2008-09-17 5 0,000 € / 0,000 € 8,527 € / 42,635 €
La belle personne 2008-09-17 5 0,000 € / 0,000 € 31,100 € / 155,500 €
Parlez-moi de la pluie 2008-09-17 5 0,000 € / 0,000 € 259,168 € / 1 295,840 €
La vie devant ses yeux 2008-09-17 3 0,000 € / 0,000 € 19,747 € / 59,241 €
Mirrors 2008-09-10 5 0,000 € / 0,000 € 187,583 € / 937,915 €
Mamma mia ! 2008-09-10 5 0,000 € / 0,000 € 460,117 € / 2 300,585 €
Cherry blossoms 2008-09-10 5 0,000 € / 0,000 € 9,127 € / 45,635 €
Rumba 2008-09-10 5 0,000 € / 0,000 € 41,261 € / 206,305 €
Les cendres du temps - redux 2008-09-10 5 0,000 € / 0,000 € 14,239 € / 71,195 €
Tropa de elite (troupe d'élite) 2008-09-03 4 0,000 € / 0,000 € 11,190 € / 44,760 €
Comme les autres 2008-09-03 5 0,000 € / 0,000 € 142,583 € / 712,915 €
Inju, la bête dans l'ombre 2008-09-03 5 0,000 € / 0,000 € 36,302 € / 181,510 €
Intrusions 2008-09-03 5 0,000 € / 0,000 € 5,717 € / 28,585 €
Christophe Colomb, l'énigme 2008-09-03 4 0,000 € / 0,000 € 8,015 € / 32,060 €
Manipulation 2008-09-03 5 0,000 € / 0,000 € 56,070 € / 280,350 €
Fracassés ! 2008-08-27 4 0,000 € / 0,000 € 0,000 € / 0,000 €
Un mari de trop 2008-08-27 5 0,000 € / 0,000 € 94,856 € / 474,280 €
Spirits 2008-08-27 4 0,000 € / 0,000 € 9,210 € / 36,840 €
Leur morale... et la nôtre 2008-08-27 5 0,000 € / 0,000 € 28,561 € / 142,805 €
Be happy 2008-08-27 4 0,000 € / 0,000 € 137,580 € / 550,320 €
Woman on the beach 2008-08-20 4 0,000 € / 0,000 € 6,164 € / 24,656 €
La fille de Monaco 2008-08-20 5 0,000 € / 0,000 € 223,874 € / 1 119,370 €
Back soon 2008-08-20 4 0,000 € / 0,000 € 16,875 € / 67,500 €
Darfour : du sable et des larmes 2008-08-20 3 0,000 € / 0,000 € 1,248 € / 3,744 €
Versailles 2008-08-13 5 0,000 € / 0,000 € 30,580 € / 152,900 €
L'empreinte de l'ange 2008-08-13 5 0,000 € / 0,000 € 149,406 € / 747,030 €
Appelez-moi Dave 2008-08-13 5 0,000 € / 0,000 € 84,093 € / 420,465 €
Gomorra 2008-08-13 5 0,000 € / 0,000 € 192,566 € / 962,830 €
Braquage à l'anglaise 2008-08-06 5 0,000 € / 0,000 € 262,089 € / 1 310,445 €
Les 3 p'tits cochons 2008-08-06 5 0,000 € / 0,000 € 29,035 € / 145,175 €
Prom night le bal de l'horreur 2008-07-30 5 0,000 € / 0,000 € 21,544 € / 107,720 €
Falafel 2008-07-30 3 0,000 € / 0,000 € 3,330 € / 9,990 €
Surveillance 2008-07-30 5 0,000 € / 0,000 € 27,699 € / 138,495 €
L'incroyable Hulk 2008-07-23 5 0,000 € / 0,000 € 281,812 € / 1 409,060 €
La cité des hommes 2008-07-23 1 0,000 € / 0,000 € 47,119 € / 47,119 €
Glory to the filmmaker ! 2008-07-16 4 0,000 € / 0,000 € 1,742 € / 6,968 €
Voyage au centre de la terre 3D 2008-07-16 5 0,000 € / 0,000 € 221,364 € / 1 106,820 €
Fool moon 2008-07-16 5 0,000 € / 0,000 € 5,824 € / 29,120 €
Biutiful Cauntri 2008-07-16 5 0,000 € / 0,000 € 2,133 € / 10,665 €
Kung fu panda 2008-07-09 5 0,000 € / 0,000 € 694,605 € / 3 473,025 €
Hancock 2008-07-09 5 0,000 € / 0,000 € 779,456 € / 3 897,280 €
Bienvenue au cottage 2008-07-09 5 0,000 € / 0,000 € 4,220 € / 21,100 €
Le voyage aux Pyrénées 2008-07-09 5 0,000 € / 0,000 € 32,950 € / 164,750 €
Mes amis mes amours 2008-07-02 5 0,000 € / 0,000 € 195,003 € / 975,015 €
Made in Italy 2008-07-02 5 0,000 € / 0,000 € 25,761 € / 128,805 €
Le monde de Narnia - Chapitre 2 - Le prince Caspian 2008-06-25 5 0,000 € / 0,000 € 527,244 € / 2 636,220 €
Au bout de la nuit 2008-06-25 5 0,000 € / 0,000 € 157,638 € / 788,190 €
Bons baisers de Bruges 2008-06-25 5 0,000 € / 0,000 € 198,929 € / 994,645 €
Eldorado 2008-06-18 4 0,000 € / 0,000 € 56,346 € / 225,384 €
Sans Sarah, rien ne va 2008-06-18 5 0,000 € / 0,000 € 55,110 € / 275,550 €
Speed racer 2008-06-18 5 0,000 € / 0,000 € 35,447 € / 177,235 €
La capture 2008-06-18 3 0,000 € / 0,000 € 2,307 € / 6,921 €
Le témoin amoureux 2008-06-18 1 0,000 € / 0,000 € 139,887 € / 139,887 €
La personne aux deux personnes 2008-06-18 5 0,000 € / 0,000 € 79,731 € / 398,655 €
Les ruines 2008-06-11 3 0,000 € / 0,000 € 6,686 € / 20,058 €
Phénomènes 2008-06-11 5 0,000 € / 0,000 € 362,778 € / 1 813,890 €
Skate or die 2008-06-11 5 0,000 € / 0,000 € 29,807 € / 149,035 €
48 heures par jour 2008-06-04 5 0,000 € / 0,000 € 35,083 € / 175,415 €
JCVD 2008-06-04 5 0,000 € / 0,000 € 75,080 € / 375,400 €
Sparrow 2008-06-04 5 0,000 € / 0,000 € 29,833 € / 149,165 €
Affaire de famille 2008-06-04 5 0,000 € / 0,000 € 45,761 € / 228,805 €
A Swedish love story 2008-06-04 3 0,000 € / 0,000 € 11,096 € / 33,288 €
Un conte de Noël 2008-05-21 5 0,000 € / 0,000 € 200,181 € / 1 000,905 €
Indiana Jones et le royaume du crâne de cristal 2008-05-21 5 0,000 € / 0,000 € 984,828 € / 4 924,140 €
Dans la vie 2008-03-12 5 0,000 € / 0,000 € 20,102 € / 100,510 €
Mon Führer 2008-03-12 4 0,000 € / 0,000 € 2,825 € / 11,300 €
10 000 2008-03-12 5 0,000 € / 0,000 € 200,765 € / 1 003,825 €
Julia 2008-03-12 5 0,000 € / 0,000 € 37,720 € / 188,600 €
U2 3D 2008-03-05 4 0,000 € / 0,000 € 4,659 € / 18,636 €
Andalucia 2008-03-05 4 0,000 € / 0,000 € 4,670 € / 18,680 €
Intraçable 2008-03-05 4 0,000 € / 0,000 € 43,009 € / 172,036 €
Soyez sympas, rembobinez 2008-03-05 5 0,000 € / 0,000 € 232,852 € / 1 164,260 €
L'heure d'été 2008-03-05 5 0,000 € / 0,000 € 128,388 € / 641,940 €
Coupable 2008-02-27 3 0,000 € / 0,000 € 4,156 € / 12,468 €
Taken 2008-02-27 5 0,000 € / 0,000 € 341,400 € / 1 707,000 €
The mist 2008-02-27 4 0,000 € / 0,000 € 18,033 € / 72,132 €
Redacted - revu et corrigé 2008-02-20 5 0,000 € / 0,000 € 26,438 € / 132,190 €
Jumper 2008-02-20 5 0,000 € / 0,000 € 333,025 € / 1 665,125 €
Paris 2008-02-20 5 0,000 € / 0,000 € 509,906 € / 2 549,530 €
La jeune fille et les loups 2008-02-13 5 0,000 € / 0,000 € 53,759 € / 268,795 €
Les cerfs-volants de Kaboul 2008-02-13 5 0,000 € / 0,000 € 39,799 € / 198,995 €
Benjamin Gates et le livre des secrets 2008-02-13 5 0,000 € / 0,000 € 399,263 € / 1 996,315 €
Le dragon des mers - La dernière légende 2008-02-13 5 0,000 € / 0,000 € 155,340 € / 776,700 €
Max & Co 2008-02-13 4 0,000 € / 0,000 € 18,630 € / 74,520 €
La fabrique des sentiments 2008-02-06 5 0,000 € / 0,000 € 51,611 € / 258,055 €
Le bannissement 2008-02-06 3 0,000 € / 0,000 € 5,372 € / 16,116 €
P.S. : I love you 2008-02-06 5 0,000 € / 0,000 € 157,756 € / 788,780 €
Cloverfield 2008-02-06 5 0,000 € / 0,000 € 259,383 € / 1 296,915 €
Promets-moi 2008-01-30 5 0,000 € / 0,000 € 38,913 € / 194,565 €
Le voyage du ballon rouge 2008-01-30 5 0,000 € / 0,000 € 8,325 € / 41,625 €
Astérix aux jeux olympiques 2008-01-30 5 0,000 € / 0,000 € 1 014,321 € / 5 071,605 €
No country for old men 2008-01-23 5 0,000 € / 0,000 € 388,578 € / 1 942,890 €
Sweeney Todd 2008-01-23 5 0,000 € / 0,000 € 328,455 € / 1 642,275 €
Didine 2008-01-23 3 0,000 € / 0,000 € 29,981 € / 89,943 €
Smiley face 2008-01-16 3 0,000 € / 0,000 € 12,748 € / 38,244 €
Triangle 2008-01-16 4 0,000 € / 0,000 € 8,849 € / 35,396 €
Enfin veuve 2008-01-16 5 0,000 € / 0,000 € 302,504 € / 1 512,520 €
La guerre selon Charlie Wilson 2008-01-16 5 0,000 € / 0,000 € 255,839 € / 1 279,195 €
Quatre minutes 2008-01-16 4 0,000 € / 0,000 € 59,039 € / 236,156 €
Le tueur 2008-01-09 5 0,000 € / 0,000 € 23,474 € / 117,370 €
Dancing queens 2008-01-09 4 0,000 € / 0,000 € 5,562 € / 22,248 €
Detention secrète 2008-01-09 5 0,000 € / 0,000 € 55,011 € / 275,055 €
Reviens-moi 2008-01-09 5 0,000 € / 0,000 € 106,801 € / 534,005 €
Les yeux bandés 2008-01-09 4 0,000 € / 0,000 € 1,522 € / 6,088 €
30 jours de nuit 2008-01-09 5 0,000 € / 0,000 € 68,133 € / 340,665 €
Le chantage 2008-01-02 4 0,000 € / 0,000 € 19,549 € / 78,196 €
It's a free world... 2008-01-02 5 0,000 € / 0,000 € 145,337 € / 726,685 €
Dante 01 2008-01-02 5 0,000 € / 0,000 € 16,960 € / 84,800 €
L'amour aux temps du cholera 2007-12-26 4 0,000 € / 0,000 € 22,387 € / 89,548 €
Actrices 2007-12-26 5 0,000 € / 0,000 € 106,541 € / 532,705 €
XXY 2007-12-26 4 0,000 € / 0,000 € 18,163 € / 72,652 €
Eden log 2007-12-26 4 0,000 € / 0,000 € 7,143 € / 28,572 €
Frere Noël 2007-12-26 4 0,000 € / 0,000 € 1,328 € / 5,312 €
The return 2007-12-26 5 0,000 € / 0,000 € 7,177 € / 35,885 €
Ma vie n'est pas une comédie romantique 2007-12-19 5 0,000 € / 0,000 € 44,963 € / 224,815 €
La clef 2007-12-19 5 0,000 € / 0,000 € 82,690 € / 413,450 €
La visite de la fanfare 2007-12-19 4 0,000 € / 0,000 € 165,285 € / 661,140 €
Si c'était lui... 2007-12-12 5 0,000 € / 0,000 € 69,815 € / 349,075 €
Big city 2007-12-12 5 0,000 € / 0,000 € 61,007 € / 305,035 €
Bee movie drôle d'abeille 2007-12-12 5 0,000 € / 0,000 € 256,128 € / 1 280,640 €
Lumiere silencieuse 2007-12-05 3 0,000 € / 0,000 € 8,439 € / 25,317 €
L'auberge rouge 2007-12-05 5 0,000 € / 0,000 € 94,958 € / 474,790 €
Cowboy 2007-12-05 5 0,000 € / 0,000 € 31,250 € / 156,250 €
La nuit nous appartient 2007-11-28 5 0,000 € / 0,000 € 370,822 € / 1 854,110 €
Lions et agneaux 2007-11-21 5 0,000 € / 0,000 € 118,105 € / 590,525 €
La France 2007-11-21 5 0,000 € / 0,000 € 5,279 € / 26,395 €
Ce soir je dors chez toi 2007-11-21 5 0,000 € / 0,000 € 142,773 € / 713,865 €
Saw IV 2007-11-21 5 0,000 € / 0,000 € 134,114 € / 670,570 €
Souffle 2007-11-21 3 0,000 € / 0,000 € 7,843 € / 23,529 €
La legende de Beowulf 2007-11-21 5 0,000 € / 0,000 € 111,347 € / 556,735 €
Dead silence 2007-11-21 4 0,000 € / 0,000 € 2,202 € / 8,808 €
Nous les vivants 2007-11-21 3 0,000 € / 0,000 € 8,564 € / 25,692 €
Voleurs de chevaux 2007-11-14 3 0,000 € / 0,000 € 0,487 € / 1,461 €
Faut que ça danse ! 2007-11-14 5 0,000 € / 0,000 € 103,459 € / 517,295 €
Dans la vallee d'Elah 2007-11-07 5 0,000 € / 0,000 € 128,542 € / 642,710 €
Les promesses de l'ombre 2007-11-07 5 0,000 € / 0,000 € 316,801 € / 1 584,005 €
Chacun son cinéma 2007-10-31 3 0,000 € / 0,000 € 5,418 € / 16,254 €
Supergrave 2007-10-31 5 0,000 € / 0,000 € 71,257 € / 356,285 €
La forêt de Mogari 2007-10-31 4 0,000 € / 0,000 € 26,134 € / 104,536 €
L'heure zéro 2007-10-31 5 0,000 € / 0,000 € 161,520 € / 807,600 €
J'ai très mal au travail 2007-10-31 3 0,000 € / 0,000 € 5,806 € / 17,418 €
Detrompez-vous 2007-10-24 5 0,000 € / 0,000 € 100,011 € / 500,055 €
Les rois de la glisse 2007-10-24 5 0,000 € / 0,000 € 272,206 € / 1 361,030 €
Okavango 3D 2007-10-17 5 0,000 € / 0,000 € 20,897 € / 104,485 €
Deux vies plus une 2007-10-17 5 0,000 € / 0,000 € 31,103 € / 155,515 €
Avant que j'oublie 2007-10-17 4 0,000 € / 0,000 € 7,335 € / 29,340 €
Invasion 2007-10-17 5 0,000 € / 0,000 € 50,004 € / 250,020 €
For your consideration 2007-10-17 3 0,000 € / 0,000 € 0,367 € / 1,101 €
Sa majesté Minor 2007-10-10 5 0,000 € / 0,000 € 38,266 € / 191,330 €
En cloque mode d'emploi 2007-10-10 5 0,000 € / 0,000 € 78,955 € / 394,775 €
Lagerfeld confidentiel 2007-10-10 3 0,000 € / 0,000 € 16,282 € / 48,846 €
Si j'étais toi 2007-10-10 3 0,000 € / 0,000 € 18,173 € / 54,519 €
L'assassinat de Jesse James par le lâche Robert Ford 2007-10-10 5 0,000 € / 0,000 € 132,916 € / 664,580 €
Les rois du patin 2007-10-03 5 0,000 € / 0,000 € 1,435 € / 7,175 €
Retour en Normandie 2007-10-03 3 0,000 € / 0,000 € 4,348 € / 13,044 €
Desir(s) 2007-10-03 3 0,000 € / 0,000 € 3,443 € / 10,329 €
À vif 2007-09-26 5 0,000 € / 0,000 € 93,946 € / 469,730 €
99 F 2007-09-26 5 0,000 € / 0,000 € 386,968 € / 1 934,840 €
7h58 ce samedi-là 2007-09-26 5 0,000 € / 0,000 € 94,610 € / 473,050 €
L'âge des ténèbres 2007-09-26 5 0,000 € / 0,000 € 31,866 € / 159,330 €
Control 2007-09-26 5 0,000 € / 0,000 € 50,112 € / 250,560 €
Alexandra 2007-09-26 4 0,000 € / 0,000 € 8,923 € / 35,692 €
L'invité 2007-09-19 5 0,000 € / 0,000 € 148,363 € / 741,815 €
Nuage 2007-09-19 3 0,000 € / 0,000 € 0,896 € / 2,688 €
Nos retrouvailles 2007-09-19 5 0,000 € / 0,000 € 3,197 € / 15,985 €
La face cachée 2007-09-19 5 0,000 € / 0,000 € 28,263 € / 141,315 €
Un coeur invaincu 2007-09-19 5 0,000 € / 0,000 € 77,909 € / 389,545 €
Un homme perdu 2007-09-19 3 0,000 € / 0,000 € 6,557 € / 19,671 €
L'âge d'homme 2007-09-12 5 0,000 € / 0,000 € 90,831 € / 454,155 €
La question humaine 2007-09-12 5 0,000 € / 0,000 € 44,435 € / 222,175 €
La vérité ou presque 2007-09-12 5 0,000 € / 0,000 € 91,389 € / 456,945 €
La vengeance dans la peau 2007-09-12 5 0,000 € / 0,000 € 487,989 € / 2 439,945 €
King of California 2007-09-12 5 0,000 € / 0,000 € 12,559 € / 62,795 €
Charly 2007-09-12 3 0,000 € / 0,000 € 3,527 € / 10,581 €
Les amours d'Astrée et de Céladon 2007-09-05 5 0,000 € / 0,000 € 30,874 € / 154,370 €
La vie d'artiste 2007-09-05 5 0,000 € / 0,000 € 35,833 € / 179,165 €
Waitress 2007-09-05 3 0,000 € / 0,000 € 26,145 € / 78,435 €
Quand Chuck rencontre Larry 2007-08-29 5 0,000 € / 0,000 € 18,963 € / 94,815 €
Prémonitions 2007-08-29 5 0,000 € / 0,000 € 56,190 € / 280,950 €
Ceux qui restent 2007-08-29 5 0,000 € / 0,000 € 102,508 € / 512,540 €
Mr. Brooks 2007-08-29 5 0,000 € / 0,000 € 106,506 € / 532,530 €
Ecole paternelle 2 2007-08-22 4 0,000 € / 0,000 € 11,576 € / 46,304 €
Hairspray 2007-08-22 5 0,000 € / 0,000 € 185,818 € / 929,090 €
Boarding gate 2007-08-22 5 0,000 € / 0,000 € 37,814 € / 189,070 €
La maison 2007-08-22 4 0,000 € / 0,000 € 12,344 € / 49,376 €
Le fils de l'épicier 2007-08-15 4 0,000 € / 0,000 € 60,429 € / 241,716 €
Caramel 2007-08-15 4 0,000 € / 0,000 € 161,713 € / 646,852 €
Naissance des pieuvres 2007-08-15 4 0,000 € / 0,000 € 35,337 € / 141,348 €
Rintintin 2007-08-15 5 0,000 € / 0,000 € 9,853 € / 49,265 €
Time 2007-08-08 3 0,000 € / 0,000 € 9,902 € / 29,706 €
La fille coupée en deux 2007-08-08 5 0,000 € / 0,000 € 224,876 € / 1 124,380 €
Pathfinder le sang du guerrier 2007-08-01 4 0,000 € / 0,000 € 0,189 € / 0,756 €
Motel 2007-08-01 4 0,000 € / 0,000 € 37,378 € / 149,512 €
Fido 2007-08-01 4 0,000 € / 0,000 € 6,827 € / 27,308 €
Waiter ! 2007-07-25 4 0,000 € / 0,000 € 1,676 € / 6,704 €
Transformers 2007-07-25 5 0,000 € / 0,000 € 430,847 € / 2 154,235 €
The invisible 2007-07-18 5 0,000 € / 0,000 € 9,623 € / 48,115 €
Glastonbury 2007-07-18 3 0,000 € / 0,000 € 1,858 € / 5,574 €
A very British gangster 2007-07-18 5 0,000 € / 0,000 € 22,475 € / 112,375 €
Joe Strummer 2007-07-11 3 0,000 € / 0,000 € 11,404 € / 34,212 €
Le contrat 2007-07-11 5 0,000 € / 0,000 € 98,927 € / 494,635 €
2 days in Paris 2007-07-11 4 0,000 € / 0,000 € 169,261 € / 677,044 €
Délice Paloma 2007-07-11 4 0,000 € / 0,000 € 48,446 € / 193,784 €
Delirious 2007-07-04 4 0,000 € / 0,000 € 24,037 € / 96,148 €
Je déteste les enfants des autres 2007-07-04 5 0,000 € / 0,000 € 68,061 € / 340,305 €
New délire 2007-07-04 3 0,000 € / 0,000 € 1,561 € / 4,683 €
Persepolis 2007-06-27 5 0,000 € / 0,000 € 445,473 € / 2 227,365 €
Cherche fiancé tous frais payés 2007-06-27 4 0,000 € / 0,000 € 47,520 € / 190,080 €
La petite amie d'Emile 2007-06-27 3 0,000 € / 0,000 € 1,225 € / 3,675 €
Roman de gare 2007-06-27 5 0,000 € / 0,000 € 123,418 € / 617,090 €
Le prestige de la mort 2007-06-20 3 0,000 € / 0,000 € 2,206 € / 6,618 €
Gypsy caravan 2007-06-20 3 0,000 € / 0,000 € 5,821 € / 17,463 €
Steak 2007-06-20 5 0,000 € / 0,000 € 69,850 € / 349,250 €
La colline a des yeux 2 2007-06-20 5 0,000 € / 0,000 € 82,218 € / 411,090 €
Gomez vs Tavares 2007-06-13 5 0,000 € / 0,000 € 42,237 € / 211,185 €
Bande de sauvages 2007-06-13 5 0,000 € / 0,000 € 98,336 € / 491,680 €
Murderball 2007-06-13 3 0,000 € / 0,000 € 0,300 € / 0,900 €
Et toi, t'es sur qui ? 2007-06-13 5 0,000 € / 0,000 € 41,438 € / 207,190 €
A l'intérieur 2007-06-13 5 0,000 € / 0,000 € 24,446 € / 122,230 €
Boxes 2007-06-06 4 0,000 € / 0,000 € 8,871 € / 35,484 €
Dialogue avec mon jardinier 2007-06-06 5 0,000 € / 0,000 € 249,823 € / 1 249,115 €
L'avocat de la terreur 2007-06-06 5 0,000 € / 0,000 € 67,609 € / 338,045 €
I don't want to sleep alone 2007-06-06 5 0,000 € / 0,000 € 9,607 € / 48,035 €
Boulevard de la mort 2007-06-06 5 0,000 € / 0,000 € 243,143 € / 1 215,715 €
88 minutes 2007-05-30 5 0,000 € / 0,000 € 129,014 € / 645,070 €
Le mas des alouettes 2007-05-30 4 0,000 € / 0,000 € 4,550 € / 18,200 €
Antonio Vivaldi un prince à Venise... 2007-05-30 5 0,000 € / 0,000 € 18,930 € / 94,650 €
Tehilim 2007-05-30 5 0,000 € / 0,000 € 15,637 € / 78,185 €
Maurice Pialat, l'amour existe 2007-05-30 2 0,000 € / 0,000 € 1,609 € / 3,218 €
Apres lui 2007-05-23 5 0,000 € / 0,000 € 33,397 € / 166,985 €
La disparue de Deauville 2007-05-23 5 0,000 € / 0,000 € 45,163 € / 225,815 €
Le scaphandre et le papillon 2007-05-23 5 0,000 € / 0,000 € 88,811 € / 444,055 €
Les chansons d'amour 2007-05-23 5 0,000 € / 0,000 € 125,217 € / 626,085 €
Zodiac 2007-05-16 5 0,000 € / 0,000 € 374,513 € / 1 872,565 €
El cielo dividido 2007-05-16 3 0,000 € / 0,000 € 4,142 € / 12,426 €
Steppin' 2007-05-16 5 0,000 € / 0,000 € 139,183 € / 695,915 €
Héros fragiles 2007-05-16 3 0,000 € / 0,000 € 3,311 € / 9,933 €
L'école des dragueurs 2007-05-16 5 0,000 € / 0,000 € 9,769 € / 48,845 €
Lucky you 2007-05-09 5 0,000 € / 0,000 € 54,618 € / 273,090 €
Irina Palm 2007-05-09 5 0,000 € / 0,000 € 71,660 € / 358,300 €
Hitcher 2007-05-09 5 0,000 € / 0,000 € 57,187 € / 285,935 €
Je suis l'autre 2007-05-09 4 0,000 € / 0,000 € 3,420 € / 13,680 €
Gradiva 2007-05-09 4 0,000 € / 0,000 € 2,834 € / 11,336 €
Dinosaures 3D 2007-05-09 4 0,000 € / 0,000 € 70,596 € / 282,384 €
El manara 2007-05-09 3 0,000 € / 0,000 € 0,446 € / 1,338 €
Miss Montigny 2007-05-02 3 0,000 € / 0,000 € 1,458 € / 4,374 €
Amer beton 2007-05-02 4 0,000 € / 0,000 € 9,965 € / 39,860 €
L'ami de la famille 2007-05-02 4 0,000 € / 0,000 € 4,312 € / 17,248 €
Très bien, merci 2007-04-25 5 0,000 € / 0,000 € 71,347 € / 356,735 €
Les oubliées de Juarez 2007-04-25 5 0,000 € / 0,000 € 68,749 € / 343,745 €
Idiocracy 2007-04-25 5 0,000 € / 0,000 € 0,031 € / 0,155 €
Une jeunesse chinoise 2007-04-18 5 0,000 € / 0,000 € 22,466 € / 112,330 €
Jean de la Fontaine le défi 2007-04-18 5 0,000 € / 0,000 € 56,317 € / 281,585 €
Nos amis les terriens 2007-04-18 4 0,000 € / 0,000 € 27,087 € / 108,348 €
Les vacances de Mr. Bean 2007-04-18 5 0,000 € / 0,000 € 223,230 € / 1 116,150 €
Shooter tireur d'élite 2007-04-18 5 0,000 € / 0,000 € 149,641 € / 748,205 €
A Casa Nostra 2007-04-18 4 0,000 € / 0,000 € 38,388 € / 153,552 €
Les châtiments 2007-04-18 5 0,000 € / 0,000 € 81,081 € / 405,405 €
Jesus camp 2007-04-18 5 0,000 € / 0,000 € 25,576 € / 127,880 €
Dangereuse séduction 2007-04-11 5 0,000 € / 0,000 € 164,369 € / 821,845 €
Le candidat 2007-04-11 5 0,000 € / 0,000 € 32,886 € / 164,430 €
TMNT Les tortues ninja 2007-04-11 5 0,000 € / 0,000 € 34,249 € / 171,245 €
Anna M. 2007-04-11 5 0,000 € / 0,000 € 71,414 € / 357,070 €
Belle toujours 2007-04-11 5 0,000 € / 0,000 € 12,931 € / 64,655 €
Dans les cordes 2007-04-04 5 0,000 € / 0,000 € 7,637 € / 38,185 €
Big movie 2007-04-04 5 0,000 € / 0,000 € 82,890 € / 414,450 €
Le prix a payer 2007-04-04 5 0,000 € / 0,000 € 302,871 € / 1 514,355 €
Les contes de Terremer 2007-04-04 5 0,000 € / 0,000 € 65,228 € / 326,140 €
Norbit 2007-04-04 5 0,000 € / 0,000 € 96,958 € / 484,790 €
Scandaleusement célèbre 2007-04-04 5 0,000 € / 0,000 € 33,399 € / 166,995 €
La reine soleil 2007-04-04 5 0,000 € / 0,000 € 39,688 € / 198,440 €
Les messagers 2007-04-04 4 0,000 € / 0,000 € 21,513 € / 86,052 €
L'éveil de Maximo Oliveros 2007-04-04 3 0,000 € / 0,000 € 3,370 € / 10,110 €
L'eventail de Lady Windermere 2007-04-04 4 0,000 € / 0,000 € 5,056 € / 20,224 €
Sego et Sarko sont en bateau... 2007-04-04 5 0,000 € / 0,000 € 5,180 € / 25,900 €
Hellphone 2007-03-28 5 0,000 € / 0,000 € 54,746 € / 273,730 €
Miss Potter 2007-03-28 5 0,000 € / 0,000 € 18,022 € / 90,110 €
Ne touchez pas la hache 2007-03-28 5 0,000 € / 0,000 € 38,323 € / 191,615 €
En la cama 2007-03-28 4 0,000 € / 0,000 € 2,580 € / 10,320 €
Golden door 2007-03-21 5 0,000 € / 0,000 € 56,168 € / 280,840 €
J'attends quelqu'un 2007-03-21 5 0,000 € / 0,000 € 55,746 € / 278,730 €
Par effraction 2007-03-14 5 0,000 € / 0,000 € 76,757 € / 383,785 €
Hyper tension 2007-03-14 5 0,000 € / 0,000 € 62,441 € / 312,205 €
Wilderness 2007-03-14 3 0,000 € / 0,000 € 11,958 € / 35,874 €
Le come back 2007-03-14 5 0,000 € / 0,000 € 249,617 € / 1 248,085 €
Angel 2007-03-14 5 0,000 € / 0,000 € 59,817 € / 299,085 €
Ma place au soleil 2007-03-14 5 0,000 € / 0,000 € 28,200 € / 141,000 €
After the wedding 2007-03-07 3 0,000 € / 0,000 € 13,143 € / 39,429 €
Le 4ème morceau de la femme coupée en 3 2007-03-07 4 0,000 € / 0,000 € 4,754 € / 19,016 €
Quelqu'un de bien (la fièvre) 2007-02-28 3 0,000 € / 0,000 € 0,055 € / 0,165 €
Le direktor 2007-02-28 5 0,000 € / 0,000 € 30,218 € / 151,090 €
Le nombre 23 2007-02-28 5 0,000 € / 0,000 € 164,669 € / 823,345 €
Michou d'Auber 2007-02-28 5 0,000 € / 0,000 € 139,241 € / 696,205 €
Dreamgirls 2007-02-28 5 0,000 € / 0,000 € 165,718 € / 828,590 €
Entre adultes 2007-02-28 4 0,000 € / 0,000 € 17,575 € / 70,300 €
Bosta l'autobus 2007-02-21 3 0,000 € / 0,000 € 5,882 € / 17,646 €
La ferme en folie 2007-02-21 5 0,000 € / 0,000 € 66,144 € / 330,720 €
Danse avec lui 2007-02-21 5 0,000 € / 0,000 € 133,399 € / 666,995 €
Juste une fois ! 2007-02-21 3 0,000 € / 0,000 € 7,095 € / 21,285 €
Nue propriété 2007-02-21 4 0,000 € / 0,000 € 23,915 € / 95,660 €
Primer 2007-02-21 3 0,000 € / 0,000 € 2,770 € / 8,310 €
Je crois que je l'aime 2007-02-21 5 0,000 € / 0,000 € 204,314 € / 1 021,570 €
Le dernier roi d'Ecosse 2007-02-14 5 0,000 € / 0,000 € 192,552 € / 962,760 €
Taxi 4 2007-02-14 5 0,000 € / 0,000 € 506,991 € / 2 534,955 €
Substitute 2007-02-14 4 0,000 € / 0,000 € 2,459 € / 9,836 €
Les liens 2007-02-07 4 0,000 € / 0,000 € 0,704 € / 2,816 €
Hannibal Lecter 2007-02-07 5 0,000 € / 0,000 € 164,700 € / 823,500 €
Odette Toulemonde 2007-02-07 5 0,000 € / 0,000 € 163,557 € / 817,785 €
Inland empire 2007-02-07 5 0,000 € / 0,000 € 54,283 € / 271,415 €
Massacre a la tronçonneuse : le commencement 2007-02-07 5 0,000 € / 0,000 € 31,254 € / 156,270 €
La nuit au musée 2007-02-07 5 0,000 € / 0,000 € 438,692 € / 2 193,460 €
Pars vite et reviens tard ! 2007-01-24 5 0,000 € / 0,000 € 184,438 € / 922,190 €
Les ambitieux 2007-01-24 5 0,000 € / 0,000 € 88,633 € / 443,165 €
Pingpong 2007-01-24 3 0,000 € / 0,000 € 19,662 € / 58,986 €
L'illusionniste (2007) 2007-01-17 5 0,000 € / 0,000 € 124,107 € / 620,535 €
Congorama 2007-01-17 3 0,000 € / 0,000 € 20,994 € / 62,982 €
Truands 2007-01-17 5 0,000 € / 0,000 € 105,886 € / 529,430 €
Les climats 2007-01-17 4 0,000 € / 0,000 € 49,190 € / 196,760 €
Stick it 2007-01-10 3 0,000 € / 0,000 € 11,412 € / 34,236 €
Fur 2007-01-10 5 0,000 € / 0,000 € 17,955 € / 89,775 €
Idlewild gangster club 2007-01-10 3 0,000 € / 0,000 € 1,687 € / 5,061 €
12h08 à l'est de Bucarest 2007-01-10 3 0,000 € / 0,000 € 29,720 € / 89,160 €
Bad times 2007-01-10 4 0,000 € / 0,000 € 35,411 € / 141,644 €
Election 2 2007-01-10 4 0,000 € / 0,000 € 19,197 € / 76,788 €
Le petit peintre du Rajhastan 2007-01-10 3 0,000 € / 0,000 € 4,406 € / 13,218 €
www, what a wonderful world 2007-01-10 3 0,000 € / 0,000 € 3,213 € / 9,639 €
Election 1 2007-01-03 5 0,000 € / 0,000 € 39,268 € / 196,340 €
Hollywoodland 2007-01-03 5 0,000 € / 0,000 € 55,051 € / 275,255 €
Loft 2007-01-03 4 0,000 € / 0,000 € 2,334 € / 9,336 €
The grudge 2 2006-12-27 4 0,000 € / 0,000 € 71,826 € / 287,304 €
The fountain 2006-12-27 5 0,000 € / 0,000 € 101,485 € / 507,425 €
Franklin et le Trésor du lac 2006-12-20 5 0,000 € / 0,000 € 53,981 € / 269,905 €
Le héros de la famille 2006-12-20 5 0,000 € / 0,000 € 161,506 € / 807,530 €
Le pacte du sang 2006-12-13 3 0,000 € / 0,000 € 13,548 € / 40,644 €
Déjà vu 2006-12-13 5 0,000 € / 0,000 € 240,602 € / 1 203,010 €
Arthur et les minimoys 2006-12-13 5 0,000 € / 0,000 € 890,351 € / 4 451,755 €
La flûte enchantée 2006-12-13 3 0,000 € / 0,000 € 13,166 € / 39,498 €
L'intouchable 2006-12-06 4 0,000 € / 0,000 € 11,065 € / 44,260 €
Happy feet 2006-12-06 5 0,000 € / 0,000 € 256,299 € / 1 281,495 €
Paprika 2006-12-06 5 0,000 € / 0,000 € 13,711 € / 68,555 €
La nativité 2006-12-06 4 0,000 € / 0,000 € 10,637 € / 42,548 €
Hors jeu 2006-12-06 4 0,000 € / 0,000 € 4,409 € / 17,636 €
Souris city 2006-11-29 5 0,000 € / 0,000 € 232,605 € / 1 163,025 €
The host 2006-11-22 5 0,000 € / 0,000 € 70,258 € / 351,290 €
Perhaps love 2006-11-22 4 0,000 € / 0,000 € 2,778 € / 11,112 €
Fast food nation 2006-11-22 5 0,000 € / 0,000 € 16,665 € / 83,325 €
Trust the man 2006-11-22 4 0,000 € / 0,000 € 1,194 € / 4,776 €
Pardonnez-moi 2006-11-22 4 0,000 € / 0,000 € 18,927 € / 75,708 €
L'étoile du soldat 2006-11-22 3 0,000 € / 0,000 € 10,766 € / 32,298 €
Allez Yallah ! 2006-11-22 4 0,000 € / 0,000 € 0,270 € / 1,080 €
Coeurs 2006-11-22 5 0,000 € / 0,000 € 136,614 € / 683,070 €
Saw III 2006-11-22 5 0,000 € / 0,000 € 183,209 € / 916,045 €
Le prestige 2006-11-15 5 0,000 € / 0,000 € 78,546 € / 392,730 €
Je m'appelle Elisabeth 2006-11-15 5 0,000 € / 0,000 € 2,668 € / 13,340 €
Babel 2006-11-15 5 0,000 € / 0,000 € 271,739 € / 1 358,695 €
Le concile de Pierre 2006-11-15 5 0,000 € / 0,000 € 45,443 € / 227,215 €
News from house news from home 2006-11-15 5 0,000 € / 0,000 € 0,756 € / 3,780 €
Borat lecons culturelles sur l'Amerique pour profit glorieuse nation Kazakhstan 2006-11-15 5 0,000 € / 0,000 € 373,983 € / 1 869,915 €
Sexy dance 2006-11-15 5 0,000 € / 0,000 € 101,571 € / 507,855 €
Shortbus 2006-11-08 5 0,000 € / 0,000 € 65,583 € / 327,915 €
Nouvelle chance 2006-11-08 5 0,000 € / 0,000 € 12,070 € / 60,350 €
Le Dahlia Noir 2006-11-08 1 0,000 € / 0,000 € 156,041 € / 156,041 €
Toi et moi... et Duprée 2006-11-08 5 0,000 € / 0,000 € 28,158 € / 140,790 €
Le labyrinthe de Pan 2006-11-01 5 0,000 € / 0,000 € 120,091 € / 600,455 €
Lady Chatterley 2006-11-01 4 0,000 € / 0,000 € 122,869 € / 491,476 €
Scoop 2006-11-01 5 0,000 € / 0,000 € 342,839 € / 1 714,195 €
Super Nacho 2006-11-01 5 0,000 € / 0,000 € 0,028 € / 0,140 €
Nuremberg Les nazis face à leurs crimes 2006-10-25 3 0,000 € / 0,000 € 0,927 € / 2,781 €
Les lumières du faubourg 2006-10-25 5 0,000 € / 0,000 € 23,309 € / 116,545 €
Alex Rider Stormbreaker 2006-10-25 5 0,000 € / 0,000 € 73,738 € / 368,690 €
Poltergay 2006-10-25 5 0,000 € / 0,000 € 85,177 € / 425,885 €
Mémoires de nos pères 2006-10-25 5 0,000 € / 0,000 € 132,808 € / 664,040 €
La balade des éléphants 2006-10-25 3 0,000 € / 0,000 € 2,001 € / 6,003 €
La Californie 2006-10-25 5 0,000 € / 0,000 € 41,139 € / 205,695 €
Azur et Asmar 2006-10-25 5 0,000 € / 0,000 € 275,589 € / 1 377,945 €
Là-bas 2006-10-25 3 0,000 € / 0,000 € 1,673 € / 5,019 €
Last kiss 2006-10-25 5 0,000 € / 0,000 € 37,393 € / 186,965 €
The queen 2006-10-18 5 0,000 € / 0,000 € 363,955 € / 1 819,775 €
Ô Jérusalem 2006-10-18 5 0,000 € / 0,000 € 75,606 € / 378,030 €
Les rebelles de la forêt 2006-10-18 5 0,000 € / 0,000 € 232,340 € / 1 161,700 €
Ces rencontres avec eux 2006-10-18 5 0,000 € / 0,000 € 1,788 € / 8,940 €
Bamako 2006-10-18 5 0,000 € / 0,000 € 52,269 € / 261,345 €
Lucky girl 2006-10-18 5 0,000 € / 0,000 € 2,427 € / 12,135 €
Severance 2006-10-18 5 0,000 € / 0,000 € 55,609 € / 278,045 €
L'école pour tous 2006-10-18 5 0,000 € / 0,000 € 103,162 € / 515,810 €
U 2006-10-11 5 0,000 € / 0,000 € 29,047 € / 145,235 €
L'homme de sa vie 2006-10-11 5 0,000 € / 0,000 € 79,846 € / 399,230 €
Mala noche 2006-10-11 4 0,000 € / 0,000 € 16,469 € / 65,876 €
Une vérité qui dérange 2006-10-11 5 0,000 € / 0,000 € 125,751 € / 628,755 €
Friends with money 2006-10-11 5 0,000 € / 0,000 € 45,507 € / 227,535 €
Le grand Meaulnes 2006-10-04 5 0,000 € / 0,000 € 79,286 € / 396,430 €
Click 2006-10-04 5 0,000 € / 0,000 € 59,566 € / 297,830 €
Le parfum histoire d'un meurtrier 2006-10-04 5 0,000 € / 0,000 € 216,408 € / 1 082,040 €
La dignité du peuple 2006-09-27 4 0,000 € / 0,000 € 4,477 € / 17,908 €
Le Diable s'habille en Prada 2006-09-27 5 0,000 € / 0,000 € 649,598 € / 3 247,990 €
Hard candy 2006-09-27 5 0,000 € / 0,000 € 34,322 € / 171,610 €
Voiture de luxe 2006-09-27 4 0,000 € / 0,000 € 10,545 € / 42,180 €
L'accordeur de tremblements de terre 2006-09-20 4 0,000 € / 0,000 € 8,561 € / 34,244 €
Sarajevo, mon amour 2006-09-20 4 0,000 € / 0,000 € 14,446 € / 57,784 €
Melissa p, 15 ans 2006-09-20 4 0,000 € / 0,000 € 5,859 € / 23,436 €
L'héritage 2006-09-20 4 0,000 € / 0,000 € 4,469 € / 17,876 €
Chacun sa nuit 2006-09-20 4 0,000 € / 0,000 € 7,432 € / 29,728 €
Quand j'étais chanteur 2006-09-13 5 0,000 € / 0,000 € 210,400 € / 1 052,000 €
A scanner darkly 2006-09-13 4 0,000 € / 0,000 € 32,982 € / 131,928 €
Avida 2006-09-13 4 0,000 € / 0,000 € 5,397 € / 21,588 €
Jugez-moi coupable 2006-09-13 5 0,000 € / 0,000 € 43,757 € / 218,785 €
Love song 2006-09-13 5 0,000 € / 0,000 € 19,567 € / 97,835 €
Barakat ! 2006-09-13 3 0,000 € / 0,000 € 3,191 € / 9,573 €
Esquisses de frank gehry 2006-09-13 4 0,000 € / 0,000 € 9,635 € / 38,540 €
Thank you for smoking 2006-09-13 5 0,000 € / 0,000 € 129,874 € / 649,370 €
Les anges exterminateurs 2006-09-13 5 0,000 € / 0,000 € 16,939 € / 84,695 €
Age difficile obscur 2006-09-06 5 0,000 € / 0,000 € 2,519 € / 12,595 €
Block party 2006-09-06 5 0,000 € / 0,000 € 12,777 € / 63,885 €
Little miss sunshine 2006-09-06 5 0,000 € / 0,000 € 510,938 € / 2 554,690 €
Jardins en automne 2006-09-06 4 0,000 € / 0,000 € 14,475 € / 57,900 €
In the mix 2006-08-16 3 0,000 € / 0,000 € 2,534 € / 7,602 €
La science des rêves 2006-08-16 5 0,000 € / 0,000 € 215,502 € / 1 077,510 €
Bleu d'enfer 2006-08-09 5 0,000 € / 0,000 € 82,895 € / 414,475 €
Wolf Creek 2006-08-09 5 0,000 € / 0,000 € 57,506 € / 287,530 €
Adieu Cuba 2006-08-09 5 0,000 € / 0,000 € 65,069 € / 325,345 €
La tourneuse de pages 2006-08-09 5 0,000 € / 0,000 € 199,451 € / 997,255 €
Little man 2006-08-09 5 0,000 € / 0,000 € 136,736 € / 683,680 €
Love of may 2006-08-02 3 0,000 € / 0,000 € 1,130 € / 3,390 €
Pirates des Caraïbes Le secret du coffre maudit 2006-08-02 5 0,000 € / 0,000 € 990,190 € / 4 950,950 €
Little Manhattan 2006-08-02 5 0,000 € / 0,000 € 1,584 € / 7,920 €
L'équilibre de la terreur 2006-08-02 5 0,000 € / 0,000 € 1,829 € / 9,145 €
Two for the money 2006-07-26 5 0,000 € / 0,000 € 48,295 € / 241,475 €
Stay 2006-07-26 5 0,000 € / 0,000 € 78,575 € / 392,875 €
Entre deux rives 2006-07-26 5 0,000 € / 0,000 € 117,813 € / 589,065 €
La vie secrète de madame Yoshino 2006-07-26 5 0,000 € / 0,000 € 13,338 € / 66,690 €
La raison du plus faible 2006-07-19 5 0,000 € / 0,000 € 60,452 € / 302,260 €
Esprit d'équipe 2006-07-19 5 0,000 € / 0,000 € 4,573 € / 22,865 €
Vol 93 2006-07-12 5 0,000 € / 0,000 € 187,257 € / 936,285 €
Les Berkman se séparent 2006-07-12 5 0,000 € / 0,000 € 43,705 € / 218,525 €
Le secret de Kelly-Anne 2006-07-12 5 0,000 € / 0,000 € 3,411 € / 17,055 €
Superman returns 2006-07-12 5 0,000 € / 0,000 € 348,679 € / 1 743,395 €
Stay alive 2006-07-12 5 0,000 € / 0,000 € 10,438 € / 52,190 €
Terreur sur la ligne 2006-07-05 5 0,000 € / 0,000 € 25,138 € / 125,690 €
Qui m'aime me suive 2006-07-05 5 0,000 € / 0,000 € 27,296 € / 136,480 €
Echo park, L.A. 2006-07-05 5 0,000 € / 0,000 € 18,523 € / 92,615 €
Nos voisins, les hommes 2006-07-05 5 0,000 € / 0,000 € 254,588 € / 1 272,940 €
Girls will be girls 2006-07-05 5 0,000 € / 0,000 € 0,871 € / 4,355 €
Takeshis' 2006-07-05 5 0,000 € / 0,000 € 9,626 € / 48,130 €
Tournage dans un jardin anglais l'invraisemblable vie de Tristram Shandy 2006-07-05 5 0,000 € / 0,000 € 53,426 € / 267,130 €
Slevin 2006-06-28 5 0,000 € / 0,000 € 183,366 € / 916,830 €
Meurtrières 2006-06-28 5 0,000 € / 0,000 € 12,954 € / 64,770 €
Le voyage en Arménie 2006-06-28 5 0,000 € / 0,000 € 62,958 € / 314,790 €
Tideland 2006-06-28 5 0,000 € / 0,000 € 19,180 € / 95,900 €
Boogeyman la porte des cauchemars 2006-06-28 5 0,000 € / 0,000 € 5,777 € / 28,885 €
Je me fais rare 2006-06-28 5 0,000 € / 0,000 € 0,925 € / 4,625 €
Origine 2006-06-28 5 0,000 € / 0,000 € 6,557 € / 32,785 €
Changement d'adresse 2006-06-21 5 0,000 € / 0,000 € 63,314 € / 316,570 €
Paris je t'aime 2006-06-21 5 0,000 € / 0,000 € 207,604 € / 1 038,020 €
Midnight movies 2006-06-21 5 0,000 € / 0,000 € 0,615 € / 3,075 €
Mes copines 2006-06-21 5 0,000 € / 0,000 € 26,547 € / 132,735 €
La colline a des yeux 2006-06-21 5 0,000 € / 0,000 € 149,019 € / 745,095 €
La rupture 2006-06-21 5 0,000 € / 0,000 € 150,701 € / 753,505 €
Dikkenek 2006-06-21 5 0,000 € / 0,000 € 47,593 € / 237,965 €
Heart of gold 2006-06-14 5 0,000 € / 0,000 € 1,250 € / 6,250 €
666 La malédiction 2006-06-14 5 0,000 € / 0,000 € 80,161 € / 400,805 €
Cars quatre roues 2006-06-14 5 0,000 € / 0,000 € 389,666 € / 1 948,330 €
Bashing 2006-06-14 5 0,000 € / 0,000 € 2,617 € / 13,085 €
Kamikaze girls 2006-06-14 5 0,000 € / 0,000 € 4,128 € / 20,640 €
Bled number one 2006-06-07 5 0,000 € / 0,000 € 24,406 € / 122,030 €
Isolation 2006-06-07 5 0,000 € / 0,000 € 15,611 € / 78,055 €
The road to Guantanamo 2006-06-07 5 0,000 € / 0,000 € 12,300 € / 61,500 €
Conversation(s) avec une femme 2006-06-07 5 0,000 € / 0,000 € 43,566 € / 217,830 €
Half light 2006-05-31 5 0,000 € / 0,000 € 0,491 € / 2,455 €
Dans la peau de Jacques Chirac 2006-05-31 5 0,000 € / 0,000 € 49,292 € / 246,460 €
Hooligans 2006-05-31 5 0,000 € / 0,000 € 40,649 € / 203,245 €
Reeker 2006-05-31 5 0,000 € / 0,000 € 23,825 € / 119,125 €
Marie Antoinette 2006-05-24 5 0,000 € / 0,000 € 459,237 € / 2 296,185 €
On ne devrait pas exister 2006-05-24 4 0,000 € / 0,000 € 2,159 € / 8,636 €
Raymond 2006-05-24 5 0,000 € / 0,000 € 13,481 € / 67,405 €
Le caïman 2006-05-24 5 0,000 € / 0,000 € 95,247 € / 476,235 €
X-Men l'affrontement final 2006-05-24 5 0,000 € / 0,000 € 638,693 € / 3 193,465 €
Duelist 2006-05-17 5 0,000 € / 0,000 € 10,273 € / 51,365 €
Volver 2006-05-17 5 0,000 € / 0,000 € 666,846 € / 3 334,230 €
Edison 2006-05-10 5 0,000 € / 0,000 € 50,021 € / 250,105 €
Bubble 2006-05-10 5 0,000 € / 0,000 € 23,440 € / 117,200 €
A bittersweet life 2006-05-10 5 0,000 € / 0,000 € 17,669 € / 88,345 €
Comme t'y es belle ! 2006-05-10 5 0,000 € / 0,000 € 288,747 € / 1 443,735 €
Secrets de famille 2006-05-10 5 0,000 € / 0,000 € 83,817 € / 419,085 €
Quatre étoiles 2006-05-03 5 0,000 € / 0,000 € 228,333 € / 1 141,665 €
Tobe Hooper's mortuary 2006-05-03 5 0,000 € / 0,000 € 21,556 € / 107,780 €
Pavee lackeen la fille du voyage 2006-05-03 2 0,000 € / 0,000 € 6,778 € / 13,556 €
Silent hill 2006-04-26 5 0,000 € / 0,000 € 187,203 € / 936,015 €
Klimt 2006-04-26 4 0,000 € / 0,000 € 29,345 € / 117,380 €
The great ecstasy of Robert Carmichael 2006-04-26 4 0,000 € / 0,000 € 5,392 € / 21,568 €
Un ami parfait 2006-04-26 5 0,000 € / 0,000 € 14,522 € / 72,610 €
Transamerica 2006-04-26 5 0,000 € / 0,000 € 72,781 € / 363,905 €
De particulier à particulier 2006-04-19 4 0,000 € / 0,000 € 6,026 € / 24,104 €
Horribilis 2006-04-19 5 0,000 € / 0,000 € 18,102 € / 90,510 €
Les enfants du pays 2006-04-19 5 0,000 € / 0,000 € 15,707 € / 78,535 €
Un año sin amor 2006-04-19 5 0,000 € / 0,000 € 4,642 € / 23,210 €
Inside man l'homme de l'intérieur 2006-04-12 5 0,000 € / 0,000 € 473,573 € / 2 367,865 €
Freres d'exil 2006-04-12 4 0,000 € / 0,000 € 4,610 € / 18,440 €
The wild 2006-04-12 5 0,000 € / 0,000 € 71,801 € / 359,005 €
Cabaret paradis 2006-04-12 5 0,000 € / 0,000 € 23,406 € / 117,030 €
April snow 2006-04-12 4 0,000 € / 0,000 € 37,561 € / 150,244 €
Fog 2006-04-12 5 0,000 € / 0,000 € 32,326 € / 161,630 €
Firewall 2006-04-05 5 0,000 € / 0,000 € 52,503 € / 262,515 €
L'âge de glace 2 2006-04-05 5 0,000 € / 0,000 € 1 025,483 € / 5 127,415 €
16 blocs 2006-04-05 5 0,000 € / 0,000 € 103,350 € / 516,750 €
L'iceberg 2006-04-05 4 0,000 € / 0,000 € 24,178 € / 96,712 €
On est bien peu de chose... 2006-03-29 3 0,000 € / 0,000 € 0,000 € / 0,000 €
Pork and milk 2006-03-29 3 0,000 € / 0,000 € 3,132 € / 9,396 €
DR9 (Drawing Restraint 9) 2006-03-29 2 0,000 € / 0,000 € 4,177 € / 8,354 €
Separate lies 2006-03-29 4 0,000 € / 0,000 € 39,459 € / 157,836 €
District ! 2006-03-29 3 0,000 € / 0,000 € 0,532 € / 1,596 €
Destination finale 3 2006-03-22 5 0,000 € / 0,000 € 206,035 € / 1 030,175 €
Romanzo criminale 2006-03-22 5 0,000 € / 0,000 € 155,980 € / 779,900 €
La planète blanche 2006-03-22 5 0,000 € / 0,000 € 105,523 € / 527,615 €
Oublier Cheyenne 2006-03-22 3 0,000 € / 0,000 € 7,456 € / 22,368 €
Burt Munro 2006-03-22 4 0,000 € / 0,000 € 11,455 € / 45,820 €
Le passager 2006-03-22 5 0,000 € / 0,000 € 17,620 € / 88,100 €
The woodsman 2006-03-15 3 0,000 € / 0,000 € 3,740 € / 11,220 €
L'accord - Un plan de paix né à Genève 2006-03-15 3 0,000 € / 0,000 € 0,494 € / 1,482 €
Un... deux... trois dansez 2006-03-15 3 0,000 € / 0,000 € 6,139 € / 18,417 €
Essaye-moi 2006-03-15 5 0,000 € / 0,000 € 134,286 € / 671,430 €
Du jour au lendemain 2006-03-15 5 0,000 € / 0,000 € 129,619 € / 648,095 €
Wu Ji, la légende des cavaliers du vent 2006-03-15 5 0,000 € / 0,000 € 65,495 € / 327,475 €
Les producteurs 2006-03-15 5 0,000 € / 0,000 € 12,938 € / 64,690 €
Playboy a saisir 2006-03-15 5 0,000 € / 0,000 € 59,760 € / 298,800 €
Shanghai dreams 2006-03-15 3 0,000 € / 0,000 € 12,189 € / 36,567 €
Renaissance 2006-03-15 5 0,000 € / 0,000 € 115,929 € / 579,645 €
Shooting dogs 2006-03-08 3 0,000 € / 0,000 € 12,848 € / 38,544 €
Toi et moi 2006-03-08 5 0,000 € / 0,000 € 46,399 € / 231,995 €
L'affaire Josey Aimes 2006-03-08 4 0,000 € / 0,000 € 20,020 € / 80,080 €
Dérapage 2006-03-08 5 0,000 € / 0,000 € 140,795 € / 703,975 €
La peur au ventre 2006-03-01 3 0,000 € / 0,000 € 19,072 € / 57,216 €
Frankie 2006-03-01 3 0,000 € / 0,000 € 6,352 € / 19,056 €
A perfect day 2006-03-01 3 0,000 € / 0,000 € 8,756 € / 26,268 €
Hostel 2006-03-01 5 0,000 € / 0,000 € 112,526 € / 562,630 €
Mémoires d'une geisha 2006-03-01 5 0,000 € / 0,000 € 239,276 € / 1 196,380 €
Hell 2006-03-01 5 0,000 € / 0,000 € 62,243 € / 311,215 €
Célibataires 2006-03-01 5 0,000 € / 0,000 € 25,786 € / 128,930 €
Le soleil 2006-03-01 3 0,000 € / 0,000 € 19,384 € / 58,152 €
Breakfast on Pluto 2006-03-01 3 0,000 € / 0,000 € 2,155 € / 6,465 €
L'ivresse du pouvoir 2006-02-22 5 0,000 € / 0,000 € 273,272 € / 1 366,360 €
Falling into paradise 2006-02-22 3 0,000 € / 0,000 € 0,185 € / 0,555 €
The saddest music in the world 2006-02-22 3 0,000 € / 0,000 € 9,530 € / 28,590 €
Paparazzi objectif chasse a l'homme 2006-02-15 5 0,000 € / 0,000 € 1,153 € / 5,765 €
Marock 2006-02-15 5 0,000 € / 0,000 € 58,258 € / 291,290 €
Fauteuils d'orchestre 2006-02-15 5 0,000 € / 0,000 € 519,358 € / 2 596,790 €
Petites confidences (à ma psy) 2006-02-15 5 0,000 € / 0,000 € 245,718 € / 1 228,590 €
The ballad of Jack and Rose 2006-02-15 5 0,000 € / 0,000 € 10,337 € / 51,685 €
Sauf le respect que je vous dois 2006-02-15 5 0,000 € / 0,000 € 31,357 € / 156,785 €
Nanny McPhee 2006-02-08 5 0,000 € / 0,000 € 172,983 € / 864,915 €
La piste 2006-02-08 5 0,000 € / 0,000 € 24,873 € / 124,365 €
Un couple parfait 2006-02-08 4 0,000 € / 0,000 € 12,567 € / 50,268 €
Ils ne mouraient pas tous mais tous étaient frappés 2006-02-08 5 0,000 € / 0,000 € 15,607 € / 78,035 €
13 tzameti 2006-02-08 5 0,000 € / 0,000 € 34,571 € / 172,855 €
Aeon flux 2006-02-08 5 0,000 € / 0,000 € 14,761 € / 73,805 €
Franz et le chef d'orchestre 2006-02-01 3 0,000 € / 0,000 € 2,498 € / 7,494 €
Nouvelle cuisine 2006-02-01 5 0,000 € / 0,000 € 9,747 € / 48,735 €
Les bronzés 3, amis pour la vie 2006-02-01 5 0,000 € / 0,000 € 1 136,694 € / 5 683,470 €
Zathura une aventure spaciale 2006-02-01 5 0,000 € / 0,000 € 57,323 € / 286,615 €
Faux amis 2006-02-01 5 0,000 € / 0,000 € 31,196 € / 155,980 €
9 m² pour deux 2006-02-01 3 0,000 € / 0,000 € 2,704 € / 8,112 €
Les mots retrouvés 2006-02-01 5 0,000 € / 0,000 € 9,464 € / 47,320 €
La trahison 2006-01-25 5 0,000 € / 0,000 € 19,262 € / 96,310 €
Les dames de Cornouailles 2006-01-25 5 0,000 € / 0,000 € 20,656 € / 103,280 €
Vers le sud 2006-01-25 5 0,000 € / 0,000 € 41,454 € / 207,270 €
Rochester le dernier des libertins 2006-01-25 5 0,000 € / 0,000 € 24,439 € / 122,195 €
Munich 2006-01-25 5 0,000 € / 0,000 € 333,441 € / 1 667,205 €
La fièvre du roller 2006-01-18 3 0,000 € / 0,000 € 0,311 € / 0,933 €
Le secret de Brokeback Mountain 2006-01-18 5 0,000 € / 0,000 € 418,965 € / 2 094,825 €
Un ticket pour l'espace 2006-01-18 5 0,000 € / 0,000 € 91,719 € / 458,595 €
Chaos 2006-01-18 5 0,000 € / 0,000 € 77,810 € / 389,050 €
Pompoko 2006-01-18 5 0,000 € / 0,000 € 55,931 € / 279,655 €
La nouvelle légende du grand judo 2006-01-11 4 0,000 € / 0,000 € 0,851 € / 3,404 €
Le plafond de verre, les défricheurs 2006-01-11 3 0,000 € / 0,000 € 3,563 € / 10,689 €
Le bal des chattes sauvages 2006-01-11 4 0,000 € / 0,000 € 2,239 € / 8,956 €
Dans un camion rouge 2006-01-04 4 0,000 € / 0,000 € 1,092 € / 4,368 €
Good night, and good luck. 2006-01-04 5 0,000 € / 0,000 € 216,171 € / 1 080,855 €
La fille du juge 2006-01-04 4 0,000 € / 0,000 € 10,100 € / 40,400 €
Appelez moi Kubrick 2006-01-04 5 0,000 € / 0,000 € 19,829 € / 99,145 €
Esprit de famille 2005-12-28 5 0,000 € / 0,000 € 129,665 € / 648,325 €
Saw II 2005-12-28 5 0,000 € / 0,000 € 193,902 € / 969,510 €
Viva Zapatero ! 2005-12-21 3 0,000 € / 0,000 € 17,569 € / 52,707 €
Angel-A 2005-12-21 5 0,000 € / 0,000 € 232,897 € / 1 164,485 €
Le Monde de Narnia : chapitre 1 - le lion, la sorcière blanche et l'armoire magique 2005-12-21 5 0,000 € / 0,000 € 787,486 € / 3 937,430 €
Mary 2005-12-21 5 0,000 € / 0,000 € 26,347 € / 131,735 €
Tout est illuminé 2005-12-14 3 0,000 € / 0,000 € 11,671 € / 35,013 €
King Kong (2005) 2005-12-14 5 0,000 € / 0,000 € 682,278 € / 3 411,390 €
Une fois que tu es né 2005-12-14 3 0,000 € / 0,000 € 1,644 € / 4,932 €
L'arc 2005-12-14 3 0,000 € / 0,000 € 13,031 € / 39,093 €
We don't live here anymore 2005-12-07 3 0,000 € / 0,000 € 2,166 € / 6,498 €
Hustle & flow 2005-12-07 3 0,000 € / 0,000 € 7,898 € / 23,694 €
L'exorcisme d'Emily Rose 2005-12-07 5 0,000 € / 0,000 € 125,668 € / 628,340 €
La vie est a nous ! 2005-12-07 5 0,000 € / 0,000 € 15,357 € / 76,785 €
Pour un seul de mes deux yeux 2005-11-30 3 0,000 € / 0,000 € 5,980 € / 17,940 €
La saveur de la pastèque 2005-11-30 3 0,000 € / 0,000 € 22,251 € / 66,753 €
Foon 2005-11-30 5 0,000 € / 0,000 € 14,901 € / 74,505 €
Le temps qui reste 2005-11-30 5 0,000 € / 0,000 € 88,706 € / 443,530 €
Les protocoles de la rumeur 2005-11-23 5 0,000 € / 0,000 € 12,407 € / 62,035 €
ADN 2005-11-23 3 0,000 € / 0,000 € 0,128 € / 0,384 €
Palais royal ! 2005-11-23 5 0,000 € / 0,000 € 551,390 € / 2 756,950 €
Mi-temps au mitard 2005-11-23 5 0,000 € / 0,000 € 4,060 € / 20,300 €
La fragile armada 2005-11-16 5 0,000 € / 0,000 € 0,740 € / 3,700 €
Camera kids 2005-11-16 5 0,000 € / 0,000 € 5,731 € / 28,655 €
Three times 2005-11-16 5 0,000 € / 0,000 € 41,933 € / 209,665 €
Le petit lieutenant 2005-11-16 5 0,000 € / 0,000 € 187,503 € / 937,515 €
La servante et le samouraï 2005-11-09 5 0,000 € / 0,000 € 4,641 € / 23,205 €
Joyeux Noël 2005-11-09 5 0,000 € / 0,000 € 242,282 € / 1 211,410 €
Les chevaliers du ciel 2005-11-09 5 0,000 € / 0,000 € 262,427 € / 1 312,135 €
40 ans, toujours puceau 2005-11-09 5 0,000 € / 0,000 € 89,417 € / 447,085 €
Manderlay 2005-11-09 5 0,000 € / 0,000 € 15,245 € / 76,225 €
Flight plan 2005-11-09 5 0,000 € / 0,000 € 238,730 € / 1 193,650 €
Zig-zag 2005-07-27 5 0,000 € / 0,000 € 14,518 € / 72,590 €
Mr. & Mrs. Smith 2005-07-27 5 0,000 € / 0,000 € 564,305 € / 2 821,525 €
On arrive quand ? 2005-07-27 5 0,000 € / 0,000 € 3,069 € / 15,345 €
Shaun of the dead 2005-07-27 5 0,000 € / 0,000 € 51,618 € / 258,090 €
Inside deep throat 2005-07-27 3 0,000 € / 0,000 € 0,000 € / 0,000 €
Le miracle de Candeal 2005-07-13 3 0,000 € / 0,000 € 2,418 € / 7,254 €
Crossing the bridge - the sound of Istanbul 2005-07-13 5 0,000 € / 0,000 € 13,632 € / 68,160 €
Layer cake 2005-07-13 3 0,000 € / 0,000 € 15,617 € / 46,851 €
Voici venu le temps 2005-07-13 5 0,000 € / 0,000 € 2,976 € / 14,880 €
Emmenez-moi 2005-07-13 5 0,000 € / 0,000 € 11,058 € / 55,290 €
Millions 2005-07-06 3 0,000 € / 0,000 € 5,256 € / 15,768 €
La guerre des mondes 2005-07-06 5 0,000 € / 0,000 € 772,175 € / 3 860,875 €
Cursed 2005-06-29 5 0,000 € / 0,000 € 10,218 € / 51,090 €
Dear Wendy 2005-06-22 3 0,000 € / 0,000 € 6,732 € / 20,196 €
Musica cubana la nouvelle generation 2005-06-22 3 0,000 € / 0,000 € 14,729 € / 44,187 €
Amityville 2005-06-22 5 0,000 € / 0,000 € 121,776 € / 608,880 €
Madagascar 2005-06-22 5 0,000 € / 0,000 € 572,107 € / 2 860,535 €
Le démon de midi 2005-06-22 5 0,000 € / 0,000 € 28,422 € / 142,110 €
Sa mère ou moi ! 2005-06-22 5 0,000 € / 0,000 € 170,666 € / 853,330 €
Les invisibles 2005-06-15 5 0,000 € / 0,000 € 6,313 € / 31,565 €
Les poupées russes 2005-06-15 5 0,000 € / 0,000 € 744,915 € / 3 724,575 €
Batman begins 2005-06-15 5 0,000 € / 0,000 € 412,939 € / 2 064,695 €
Torremolinos 73 2005-06-15 3 0,000 € / 0,000 € 11,498 € / 34,494 €
Baby-sittor 2005-06-08 5 0,000 € / 0,000 € 161,631 € / 808,155 €
The world 2005-06-08 3 0,000 € / 0,000 € 24,612 € / 73,836 €
L'interprète 2005-06-08 5 0,000 € / 0,000 € 363,611 € / 1 818,055 €
A dirty shame 2005-06-08 5 0,000 € / 0,000 € 15,780 € / 78,900 €
La pègre 2005-06-08 3 0,000 € / 0,000 € 1,678 € / 5,034 €
Travaux, on sait quand ca commence... 2005-06-01 5 0,000 € / 0,000 € 159,986 € / 799,930 €
Sahara 2005-06-01 5 0,000 € / 0,000 € 83,641 € / 418,205 €
Le domaine perdu 2005-06-01 3 0,000 € / 0,000 € 3,271 € / 9,813 €
Le 7ème jour 2005-05-25 5 0,000 € / 0,000 € 5,886 € / 29,430 €
La maison de cire 2005-05-25 5 0,000 € / 0,000 € 94,466 € / 472,330 €
Sous la peau de la ville 2005-05-25 3 0,000 € / 0,000 € 0,000 € / 0,000 €
Le pont du roi Saint-Louis 2005-05-25 5 0,000 € / 0,000 € 24,970 € / 124,850 €
Présentateur vedette : la légende de Ron Burgundy 2005-05-18 5 0,000 € / 0,000 € 1,645 € / 8,225 €
Fashion maman 2005-05-18 5 0,000 € / 0,000 € 5,467 € / 27,335 €
Frères de sang 2005-05-11 5 0,000 € / 0,000 € 14,179 € / 70,895 €
Le crime farpait 2005-05-11 5 0,000 € / 0,000 € 62,526 € / 312,630 €
En bonne compagnie 2005-05-11 5 0,000 € / 0,000 € 61,729 € / 308,645 €
Le thé d'Ania 2005-05-04 4 0,000 € / 0,000 € 1,172 € / 4,688 €
L'intrus 2005-05-04 5 0,000 € / 0,000 € 6,876 € / 34,380 €
Le cinquième empire 2005-05-04 3 0,000 € / 0,000 € 2,408 € / 7,224 €
3... extrêmes 2005-05-04 3 0,000 € / 0,000 € 7,299 € / 21,897 €
Vanity fair la foire aux vanités 2005-05-04 5 0,000 € / 0,000 € 5,652 € / 28,260 €
Avant qu'il ne soit trop tard 2005-05-04 5 0,000 € / 0,000 € 44,247 € / 221,235 €
Shall we dance ? La nouvelle vie de Monsieur Clark 2005-05-04 5 0,000 € / 0,000 € 144,335 € / 721,675 €
La femme d'eau 2005-05-04 3 0,000 € / 0,000 € 2,180 € / 6,540 €
Otage 2005-04-27 5 0,000 € / 0,000 € 197,851 € / 989,255 €
The take 2005-04-27 5 0,000 € / 0,000 € 7,392 € / 36,960 €
Un fil à la patte 2005-04-27 5 0,000 € / 0,000 € 54,322 € / 271,610 €
J'adore Huckabees 2005-04-27 5 0,000 € / 0,000 € 19,311 € / 96,555 €
New-york masala 2005-04-27 3 0,000 € / 0,000 € 10,510 € / 31,530 €
XXX 2 : the next level 2005-04-27 5 0,000 € / 0,000 € 126,497 € / 632,485 €
Anthony Zimmer 2005-04-27 5 0,000 € / 0,000 € 256,765 € / 1 283,825 €
Les 3 chambres de la mélancolie 2005-04-20 1 0,000 € / 0,000 € 1,922 € / 1,922 €
Pieces of april 2005-04-20 2 0,000 € / 0,000 € 1,390 € / 2,780 €
Hair high 2005-04-20 5 0,000 € / 0,000 € 5,442 € / 27,210 €
L'empire des loups 2005-04-20 5 0,000 € / 0,000 € 130,093 € / 650,465 €
Garden state 2005-04-20 5 0,000 € / 0,000 € 161,314 € / 806,570 €
The taste of tea 2005-04-20 4 0,000 € / 0,000 € 39,709 € / 158,836 €
Mon petit doigt m'a dit... 2005-04-13 5 0,000 € / 0,000 € 294,127 € / 1 470,635 €
Akoibon 2005-04-13 5 0,000 € / 0,000 € 28,920 € / 144,600 €
Dans tes rêves 2005-04-13 5 0,000 € / 0,000 € 48,541 € / 242,705 €
In your hands 2005-04-13 5 0,000 € / 0,000 € 3,071 € / 15,355 €
Searching for Debra Winger 2005-04-06 2 0,000 € / 0,000 € 1,462 € / 2,924 €
La nounou 3 2005-04-06 1 0,000 € / 0,000 € 2,033 € / 2,033 €
Private 2005-04-06 3 0,000 € / 0,000 € 4,132 € / 12,396 €
Les enfants 2005-04-06 5 0,000 € / 0,000 € 68,105 € / 340,525 €
La blessure 2005-04-06 3 0,000 € / 0,000 € 4,738 € / 14,214 €
Le cercle - the ring 2 2005-03-30 5 0,000 € / 0,000 € 156,254 € / 781,270 €
L'antidote 2005-03-30 5 0,000 € / 0,000 € 97,013 € / 485,065 €
Crustacés & coquillages 2005-03-30 5 0,000 € / 0,000 € 71,088 € / 355,440 €
Une femme coréenne 2005-03-30 5 0,000 € / 0,000 € 10,828 € / 54,140 €
Vaillant pigeon de combat ! 2005-03-30 5 0,000 € / 0,000 € 187,281 € / 936,405 €
Hôtel Rwanda 2005-03-30 5 0,000 € / 0,000 € 59,595 € / 297,975 €
Les mots bleus 2005-03-23 5 0,000 € / 0,000 € 26,938 € / 134,690 €
Disparitions 2005-03-23 5 0,000 € / 0,000 € 7,130 € / 35,650 €
Be cool 2005-03-23 5 0,000 € / 0,000 € 120,779 € / 603,895 €
Million dollar baby 2005-03-23 5 0,000 € / 0,000 € 780,900 € / 3 904,500 €
L'oeil de l'autre 2005-03-23 5 0,000 € / 0,000 € 0,993 € / 4,965 €
Avanim (les pierres) 2005-03-16 5 0,000 € / 0,000 € 23,643 € / 118,215 €
Capitaine Sky et le monde de demain 2005-03-16 5 0,000 € / 0,000 € 30,624 € / 153,120 €
De battre, mon coeur s'est arrêté 2005-03-16 5 0,000 € / 0,000 € 351,521 € / 1 757,605 €
Tout pour plaire 2005-03-16 5 0,000 € / 0,000 € 358,743 € / 1 793,715 €
Calvaire 2005-03-16 5 0,000 € / 0,000 € 8,530 € / 42,650 €
Au sud des nuages 2005-03-16 5 0,000 € / 0,000 € 2,939 € / 14,695 €
La fiancée syrienne 2005-03-09 5 0,000 € / 0,000 € 43,880 € / 219,400 €
La vie aquatique 2005-03-09 5 0,000 € / 0,000 € 116,642 € / 583,210 €
Le couperet 2005-03-02 5 0,000 € / 0,000 € 182,852 € / 914,260 €
Cinéastes a tout prix 2005-03-02 5 0,000 € / 0,000 € 1,097 € / 5,485 €
9 songs 2005-03-02 5 0,000 € / 0,000 € 19,033 € / 95,165 €
Assaut sur le central 13 2005-03-02 5 0,000 € / 0,000 € 124,590 € / 622,950 €
Spanglish 2005-03-02 5 0,000 € / 0,000 € 13,363 € / 66,815 €
Le cauchemar de Darwin 2005-03-02 5 0,000 € / 0,000 € 109,055 € / 545,275 €
Profils paysans : le quotidien 2005-02-23 5 0,000 € / 0,000 € 10,578 € / 52,890 €
Neverland 2005-02-23 5 0,000 € / 0,000 € 182,832 € / 914,160 €
Arnold la conquête de l'Ouest 2005-02-16 1 0,000 € / 0,000 € 1,687 € / 1,687 €
Le promeneur du Champ de Mars 2005-02-16 3 0,000 € / 0,000 € 156,371 € / 469,113 €
Constantine 2005-02-16 4 0,000 € / 0,000 € 305,342 € / 1 221,368 €

Actions détenues

Nom Cours Nombre d'actions
Ben Affleck 27 € 3
Woody Allen 44 € 4
Pedro Almodovar 43 € 3
Mathieu Amalric 27 € 5
Gemma Arterton 40 € 2
Yvan Attal 15 € 4
Daniel Auteuil 36 € 3
Edouard Baer 31 € 2
Josiane Balasko 48 € 3
Christian Bale 24 € 2
Antonio Banderas 54 € 3
Javier Bardem 39 € 1
Nathalie Baye 64 € 5
Emmanuelle Béart 51 € 3
Jamie Bell 5 € 3
François Berléand 38 € 2
Charles Berling 9 € 3
Cate Blanchett 37 € 1
Helena Bonham Carter 4 € 2
Dany Boon 20 € 5
Louise Bourgoin 6 € 1
Adrien Brody 36 € 4
Josh Brolin 43 € 1
Sandra Bullock 51 € 3
Tim Burton 11 € 2
Nicolas Cage 45 € 5
Guillaume Canet 42 € 5
Isabelle Carré 52 € 2
Jim Carrey 1 € 3
Vincent Cassel 14 € 3
Alain Chabat 28 € 4
Jessica Chastain 46 € 3
George Clooney 32 € 5
François Cluzet 18 € 3
Bradley Cooper 35 € 4
Clovis Cornillac 28 € 3
Marion Cotillard 38 € 5
Daniel Craig 27 € 5
Russell Crowe 12 € 1
Tom Cruise 78 € 4
Penélope Cruz 54 € 3
Benedict Cumberbatch 81 € 3
John Cusack 0 € 4
Francois Damiens 29 € 3
Matt Damon 33 € 5
Jean-Pierre Darroussin 37 € 2
Cécile de France 41 € 4
Catherine Deneuve 19 € 5
Robert De Niro 19 € 5
Julie Depardieu 55 € 2
Gérard Depardieu 60 € 4
Johnny Depp 12 € 2
Cameron Diaz 2 € 5
Leonardo DiCaprio 14 € 5
Vin Diesel 19 € 2
Robert Downey Jr 15 € 5
Franck Dubosc 37 € 2
Jean Dujardin 31 € 4
Kirsten Dunst 13 € 3
Albert Dupontel 22 € 2
Romain Duris 64 € 5
André Dussollier 25 € 5
Clint Eastwood 10 € 3
Aaron Eckhart 4 € 4
Chris Evans 25 € 2
Luke Evans 8 € 1
Dakota Fanning 11 € 1
Colin Farrell 60 € 5
Michael Fassbender 7 € 1
Ralph Fiennes 34 € 5
Marina Foïs 58 € 1
Harrison Ford 11 € 2
Jamie Foxx 47 € 2
James Franco 9 € 5
Morgan Freeman 11 € 1
Catherine Frot 31 € 5
Charlotte Gainsbourg 62 € 5
Gael Garcia Bernal 16 € 2
José Garcia 29 € 4
Paul Giamatti 19 € 1
Joseph Gordon-Levitt 4 € 3
Ryan Gosling 9 € 5
Jake Gyllenhaal 23 € 5
Tom Hanks 22 € 3
Tom Hardy 37 € 4
Anne Hathaway 11 € 3
Anthony Hopkins 7 € 5
Nicholas Hoult 5 € 2
Isabelle Huppert 16 € 5
Hugh Jackman 22 € 5
Samuel L. Jackson 17 € 3
Peter Jackson 8 € 3
Scarlett Johansson 28 € 5
Angelina Jolie 24 € 2
Milla Jovovich 8 € 1
Gérard Jugnot 20 € 2
Sandrine Kiberlain 95 € 2
Nicole Kidman 19 € 3
Keira Knightley 13 € 2
Diane Kruger 26 € 5
Mila Kunis 0 € 2
Olga Kurylenko 15 € 2
Shia Labeouf 3 € 4
Laurent Lafitte 31 € 2
Mélanie Laurent 7 € 3
Jude Law 51 € 5
Jennifer Lawrence 14 € 2
Gilles Lellouche 63 € 2
Valérie Lemercier 18 € 4
Vincent Lindon 69 € 4
Fabrice Luchini 14 € 5
Benoît Magimel 20 € 2
Tobey Maguire 5 € 2
John Malkovich 5 € 2
Ewan McGregor 36 € 5
Kad Merad 22 € 3
Julianne Moore 27 € 5
Yolande Moreau 50 € 2
Carey Mulligan 8 € 2
Liam Neeson 42 € 4
Edward Norton 19 € 2
Gary Oldman 5 € 2
Clive Owen 3 € 5
François Ozon 55 € 3
Al Pacino 20 € 1
Gwyneth Paltrow 11 € 2
Robert Pattinson 47 € 3
Simon Pegg 9 € 2
Sean Penn 33 € 5
Brad Pitt 74 € 5
Benoit Poelvoorde 55 € 5
Natalie Portman 54 € 4
Daniel Radcliffe 46 € 5
Tahar Rahim 31 € 1
Noomi Rapace 28 € 4
Keanu Reeves 54 € 2
Jeremy Renner 4 € 1
Jean Reno 3 € 5
Ryan Reynolds 12 € 3
Julia Roberts 38 € 5
Mark Ruffalo 16 € 2
Ludivine Sagnier 23 € 1
Martin Scorsese 5 € 2
Ridley Scott 28 € 1
Kristin Scott Thomas 10 € 2
Mathilde Seigner 14 € 5
Lea Seydoux 64 € 2
Will Smith 24 € 4
Steven Soderbergh 22 € 1
Steven Spielberg 24 € 3
Sylvester Stallone 16 € 1
Jason Statham 22 € 1
Ben Stiller 3 € 5
Meryl Streep 14 € 5
Mark Strong 16 € 1
Hilary Swank 26 € 2
Omar Sy 28 € 3
Quentin Tarantino 14 € 4
Channing Tatum 66 € 3
Audrey Tautou 3 € 5
Charlize Théron 24 € 4
Uma Thurman 8 € 2
John Travolta 8 € 3
Gaspard Ulliel 5 € 3
Karin Viard 31 € 5
Mark Wahlberg 41 € 2
Denzel Washington 8 € 3
Emma Watson 14 € 1
Naomi Watts 3 € 5
Sigourney Weaver 26 € 3
Bruce Willis 12 € 3
Lambert Wilson 40 € 3
Owen Wilson 37 € 1
Kate Winslet 8 € 5
Sam Worthington 15 € 1
Renee Zellweger 12 € 1
© Cinébourse/Ferblanc/toile 1999-2022.